<?xml version="1.0" encoding="UTF-8" standalone="no" ?>
<gpx xmlns="http://www.topografix.com/GPX/1/1" xmlns:xsi="http://www.w3.org/2001/XMLSchema-instance" xsi:schemaLocation="http://www.topografix.com/GPX/1/1 http://www.topografix.com/GPX/1/1/gpx.xsd" version="1.1" creator="VisuGPX - https://www.visugpx.com">
  <metadata>
    <name>St Martin en Haut - Parcours K</name>
    <desc><![CDATA[Beaux passages en sous-bois.

Attention, grande descente donc grande remontée !]]></desc>
  </metadata>
  <trk>
    <name><![CDATA[St Martin en Haut - Parcours K_1]]></name>
    <trkseg>
      <trkpt lat="45.65886" lon="4.56425">
        <ele>726</ele>
        <time>2011-08-01T11:57:01.000Z</time>
      </trkpt>
      <trkpt lat="45.65897" lon="4.56357">
        <ele>726</ele>
        <time>2011-08-01T11:57:07.000Z</time>
      </trkpt>
      <trkpt lat="45.65912" lon="4.56315">
        <ele>714</ele>
        <time>2011-08-01T11:57:11.000Z</time>
      </trkpt>
      <trkpt lat="45.65912" lon="4.56315">
        <ele>714</ele>
        <time>2011-08-01T11:57:21.000Z</time>
      </trkpt>
      <trkpt lat="45.65936" lon="4.5626">
        <ele>729</ele>
        <time>2011-08-01T11:58:09.000Z</time>
      </trkpt>
      <trkpt lat="45.65945" lon="4.56241">
        <ele>721</ele>
        <time>2011-08-01T11:58:25.000Z</time>
      </trkpt>
      <trkpt lat="45.65945" lon="4.5624">
        <ele>722</ele>
        <time>2011-08-01T11:58:27.000Z</time>
      </trkpt>
      <trkpt lat="45.65945" lon="4.56235">
        <ele>721</ele>
        <time>2011-08-01T11:58:31.000Z</time>
      </trkpt>
      <trkpt lat="45.65946" lon="4.56234">
        <ele>723</ele>
        <time>2011-08-01T11:58:33.000Z</time>
      </trkpt>
      <trkpt lat="45.65946" lon="4.56232">
        <ele>724</ele>
        <time>2011-08-01T11:58:35.000Z</time>
      </trkpt>
      <trkpt lat="45.65946" lon="4.56229">
        <ele>723</ele>
        <time>2011-08-01T11:58:37.000Z</time>
      </trkpt>
      <trkpt lat="45.65947" lon="4.56219">
        <ele>724</ele>
        <time>2011-08-01T11:58:43.000Z</time>
      </trkpt>
      <trkpt lat="45.65948" lon="4.56212">
        <ele>724</ele>
        <time>2011-08-01T11:58:49.000Z</time>
      </trkpt>
      <trkpt lat="45.65948" lon="4.56211">
        <ele>725</ele>
        <time>2011-08-01T11:58:51.000Z</time>
      </trkpt>
      <trkpt lat="45.65948" lon="4.56211">
        <ele>725</ele>
        <time>2011-08-01T11:59:11.000Z</time>
      </trkpt>
      <trkpt lat="45.65948" lon="4.56171">
        <ele>725</ele>
        <time>2011-08-01T11:59:17.000Z</time>
      </trkpt>
      <trkpt lat="45.65948" lon="4.56171">
        <ele>725</ele>
        <time>2011-08-01T11:59:37.000Z</time>
      </trkpt>
      <trkpt lat="45.65949" lon="4.56106">
        <ele>725</ele>
        <time>2011-08-01T12:00:01.000Z</time>
      </trkpt>
      <trkpt lat="45.65953" lon="4.56077">
        <ele>725</ele>
        <time>2011-08-01T12:00:19.000Z</time>
      </trkpt>
      <trkpt lat="45.65955" lon="4.56073">
        <ele>725</ele>
        <time>2011-08-01T12:00:21.000Z</time>
      </trkpt>
      <trkpt lat="45.65993" lon="4.56032">
        <ele>726</ele>
        <time>2011-08-01T12:00:57.000Z</time>
      </trkpt>
      <trkpt lat="45.65993" lon="4.56032">
        <ele>726</ele>
        <time>2011-08-01T12:01:17.000Z</time>
      </trkpt>
      <trkpt lat="45.66012" lon="4.56027">
        <ele>727</ele>
        <time>2011-08-01T12:01:23.000Z</time>
      </trkpt>
      <trkpt lat="45.66014" lon="4.56029">
        <ele>727</ele>
        <time>2011-08-01T12:01:25.000Z</time>
      </trkpt>
      <trkpt lat="45.66034" lon="4.56058">
        <ele>728</ele>
        <time>2011-08-01T12:01:51.000Z</time>
      </trkpt>
      <trkpt lat="45.66034" lon="4.56058">
        <ele>728</ele>
        <time>2011-08-01T12:02:11.000Z</time>
      </trkpt>
      <trkpt lat="45.66051" lon="4.5612">
        <ele>728</ele>
        <time>2011-08-01T12:02:37.000Z</time>
      </trkpt>
      <trkpt lat="45.6606" lon="4.56166">
        <ele>729</ele>
        <time>2011-08-01T12:02:59.000Z</time>
      </trkpt>
      <trkpt lat="45.66077" lon="4.56212">
        <ele>730</ele>
        <time>2011-08-01T12:03:15.000Z</time>
      </trkpt>
      <trkpt lat="45.66079" lon="4.56216">
        <ele>730</ele>
        <time>2011-08-01T12:03:17.000Z</time>
      </trkpt>
      <trkpt lat="45.66093" lon="4.56243">
        <ele>731</ele>
        <time>2011-08-01T12:03:31.000Z</time>
      </trkpt>
      <trkpt lat="45.66105" lon="4.56278">
        <ele>731</ele>
        <time>2011-08-01T12:03:49.000Z</time>
      </trkpt>
      <trkpt lat="45.66129" lon="4.56321">
        <ele>732</ele>
        <time>2011-08-01T12:04:27.000Z</time>
      </trkpt>
      <trkpt lat="45.66142" lon="4.56325">
        <ele>732</ele>
        <time>2011-08-01T12:04:39.000Z</time>
      </trkpt>
      <trkpt lat="45.66143" lon="4.56325">
        <ele>733</ele>
        <time>2011-08-01T12:04:41.000Z</time>
      </trkpt>
      <trkpt lat="45.66168" lon="4.56319">
        <ele>734</ele>
        <time>2011-08-01T12:05:05.000Z</time>
      </trkpt>
      <trkpt lat="45.66183" lon="4.56314">
        <ele>735</ele>
        <time>2011-08-01T12:05:15.000Z</time>
      </trkpt>
      <trkpt lat="45.66228" lon="4.56313">
        <ele>736</ele>
        <time>2011-08-01T12:06:03.000Z</time>
      </trkpt>
      <trkpt lat="45.66253" lon="4.56311">
        <ele>734</ele>
        <time>2011-08-01T12:06:21.000Z</time>
      </trkpt>
      <trkpt lat="45.66253" lon="4.56311">
        <ele>734</ele>
        <time>2011-08-01T12:06:41.000Z</time>
      </trkpt>
      <trkpt lat="45.66275" lon="4.56316">
        <ele>736</ele>
        <time>2011-08-01T12:06:43.000Z</time>
      </trkpt>
      <trkpt lat="45.66276" lon="4.56317">
        <ele>736</ele>
        <time>2011-08-01T12:06:45.000Z</time>
      </trkpt>
      <trkpt lat="45.6628" lon="4.56324">
        <ele>736</ele>
        <time>2011-08-01T12:06:49.000Z</time>
      </trkpt>
      <trkpt lat="45.6628" lon="4.56325">
        <ele>736</ele>
        <time>2011-08-01T12:06:51.000Z</time>
      </trkpt>
      <trkpt lat="45.66297" lon="4.5636">
        <ele>737</ele>
        <time>2011-08-01T12:07:11.000Z</time>
      </trkpt>
      <trkpt lat="45.66307" lon="4.56381">
        <ele>736</ele>
        <time>2011-08-01T12:07:23.000Z</time>
      </trkpt>
      <trkpt lat="45.66309" lon="4.56387">
        <ele>737</ele>
        <time>2011-08-01T12:07:25.000Z</time>
      </trkpt>
      <trkpt lat="45.66323" lon="4.5642">
        <ele>738</ele>
        <time>2011-08-01T12:07:41.000Z</time>
      </trkpt>
      <trkpt lat="45.66334" lon="4.56455">
        <ele>739</ele>
        <time>2011-08-01T12:07:57.000Z</time>
      </trkpt>
      <trkpt lat="45.66339" lon="4.56478">
        <ele>740</ele>
        <time>2011-08-01T12:08:13.000Z</time>
      </trkpt>
      <trkpt lat="45.66344" lon="4.56497">
        <ele>739</ele>
        <time>2011-08-01T12:08:23.000Z</time>
      </trkpt>
      <trkpt lat="45.66349" lon="4.56514">
        <ele>738</ele>
        <time>2011-08-01T12:08:33.000Z</time>
      </trkpt>
      <trkpt lat="45.6635" lon="4.56515">
        <ele>738</ele>
        <time>2011-08-01T12:08:35.000Z</time>
      </trkpt>
      <trkpt lat="45.66355" lon="4.56527">
        <ele>738</ele>
        <time>2011-08-01T12:08:43.000Z</time>
      </trkpt>
      <trkpt lat="45.66358" lon="4.5654">
        <ele>738</ele>
        <time>2011-08-01T12:08:51.000Z</time>
      </trkpt>
      <trkpt lat="45.66369" lon="4.56583">
        <ele>737</ele>
        <time>2011-08-01T12:09:25.000Z</time>
      </trkpt>
      <trkpt lat="45.66372" lon="4.56596">
        <ele>736</ele>
        <time>2011-08-01T12:09:33.000Z</time>
      </trkpt>
      <trkpt lat="45.66376" lon="4.56609">
        <ele>735</ele>
        <time>2011-08-01T12:09:41.000Z</time>
      </trkpt>
      <trkpt lat="45.66386" lon="4.56644">
        <ele>734</ele>
        <time>2011-08-01T12:09:59.000Z</time>
      </trkpt>
      <trkpt lat="45.66388" lon="4.56656">
        <ele>734</ele>
        <time>2011-08-01T12:10:05.000Z</time>
      </trkpt>
      <trkpt lat="45.66392" lon="4.56678">
        <ele>733</ele>
        <time>2011-08-01T12:10:11.000Z</time>
      </trkpt>
      <trkpt lat="45.66397" lon="4.56703">
        <ele>732</ele>
        <time>2011-08-01T12:10:21.000Z</time>
      </trkpt>
      <trkpt lat="45.66407" lon="4.56765">
        <ele>732</ele>
        <time>2011-08-01T12:10:51.000Z</time>
      </trkpt>
      <trkpt lat="45.66407" lon="4.56768">
        <ele>732</ele>
        <time>2011-08-01T12:10:53.000Z</time>
      </trkpt>
      <trkpt lat="45.6641" lon="4.56794">
        <ele>732</ele>
        <time>2011-08-01T12:11:11.000Z</time>
      </trkpt>
      <trkpt lat="45.66412" lon="4.56833">
        <ele>733</ele>
        <time>2011-08-01T12:11:33.000Z</time>
      </trkpt>
      <trkpt lat="45.66414" lon="4.56864">
        <ele>734</ele>
        <time>2011-08-01T12:11:43.000Z</time>
      </trkpt>
      <trkpt lat="45.66418" lon="4.56893">
        <ele>735</ele>
        <time>2011-08-01T12:12:03.000Z</time>
      </trkpt>
      <trkpt lat="45.66419" lon="4.56896">
        <ele>735</ele>
        <time>2011-08-01T12:12:05.000Z</time>
      </trkpt>
      <trkpt lat="45.6642" lon="4.569">
        <ele>736</ele>
        <time>2011-08-01T12:12:07.000Z</time>
      </trkpt>
      <trkpt lat="45.66426" lon="4.56925">
        <ele>735</ele>
        <time>2011-08-01T12:12:29.000Z</time>
      </trkpt>
      <trkpt lat="45.66427" lon="4.56929">
        <ele>735</ele>
        <time>2011-08-01T12:12:31.000Z</time>
      </trkpt>
      <trkpt lat="45.66439" lon="4.56954">
        <ele>734</ele>
        <time>2011-08-01T12:12:43.000Z</time>
      </trkpt>
      <trkpt lat="45.66449" lon="4.56971">
        <ele>733</ele>
        <time>2011-08-01T12:12:51.000Z</time>
      </trkpt>
      <trkpt lat="45.66463" lon="4.56994">
        <ele>732</ele>
        <time>2011-08-01T12:13:03.000Z</time>
      </trkpt>
      <trkpt lat="45.66481" lon="4.57022">
        <ele>733</ele>
        <time>2011-08-01T12:13:23.000Z</time>
      </trkpt>
      <trkpt lat="45.66483" lon="4.57025">
        <ele>733</ele>
        <time>2011-08-01T12:13:25.000Z</time>
      </trkpt>
      <trkpt lat="45.66486" lon="4.57036">
        <ele>734</ele>
        <time>2011-08-01T12:13:33.000Z</time>
      </trkpt>
      <trkpt lat="45.66489" lon="4.57056">
        <ele>734</ele>
        <time>2011-08-01T12:13:49.000Z</time>
      </trkpt>
      <trkpt lat="45.6649" lon="4.57071">
        <ele>735</ele>
        <time>2011-08-01T12:13:57.000Z</time>
      </trkpt>
      <trkpt lat="45.66494" lon="4.57134">
        <ele>734</ele>
        <time>2011-08-01T12:14:25.000Z</time>
      </trkpt>
      <trkpt lat="45.665" lon="4.57191">
        <ele>734</ele>
        <time>2011-08-01T12:14:57.000Z</time>
      </trkpt>
      <trkpt lat="45.6651" lon="4.57239">
        <ele>734</ele>
        <time>2011-08-01T12:15:19.000Z</time>
      </trkpt>
      <trkpt lat="45.66511" lon="4.57241">
        <ele>734</ele>
        <time>2011-08-01T12:15:21.000Z</time>
      </trkpt>
      <trkpt lat="45.66512" lon="4.57246">
        <ele>733</ele>
        <time>2011-08-01T12:15:25.000Z</time>
      </trkpt>
      <trkpt lat="45.66513" lon="4.57249">
        <ele>733</ele>
        <time>2011-08-01T12:15:27.000Z</time>
      </trkpt>
      <trkpt lat="45.66519" lon="4.5726">
        <ele>732</ele>
        <time>2011-08-01T12:15:35.000Z</time>
      </trkpt>
      <trkpt lat="45.6652" lon="4.57262">
        <ele>732</ele>
        <time>2011-08-01T12:15:37.000Z</time>
      </trkpt>
      <trkpt lat="45.66522" lon="4.57266">
        <ele>732</ele>
        <time>2011-08-01T12:15:39.000Z</time>
      </trkpt>
      <trkpt lat="45.66537" lon="4.57291">
        <ele>731</ele>
        <time>2011-08-01T12:15:51.000Z</time>
      </trkpt>
      <trkpt lat="45.66546" lon="4.57306">
        <ele>730</ele>
        <time>2011-08-01T12:15:57.000Z</time>
      </trkpt>
      <trkpt lat="45.66556" lon="4.57319">
        <ele>729</ele>
        <time>2011-08-01T12:16:03.000Z</time>
      </trkpt>
      <trkpt lat="45.66565" lon="4.57329">
        <ele>728</ele>
        <time>2011-08-01T12:16:09.000Z</time>
      </trkpt>
      <trkpt lat="45.6658" lon="4.57341">
        <ele>728</ele>
        <time>2011-08-01T12:16:21.000Z</time>
      </trkpt>
      <trkpt lat="45.66581" lon="4.57342">
        <ele>727</ele>
        <time>2011-08-01T12:16:23.000Z</time>
      </trkpt>
      <trkpt lat="45.66598" lon="4.57347">
        <ele>727</ele>
        <time>2011-08-01T12:16:35.000Z</time>
      </trkpt>
      <trkpt lat="45.66599" lon="4.57347">
        <ele>726</ele>
        <time>2011-08-01T12:16:37.000Z</time>
      </trkpt>
      <trkpt lat="45.66601" lon="4.57346">
        <ele>726</ele>
        <time>2011-08-01T12:16:39.000Z</time>
      </trkpt>
      <trkpt lat="45.66602" lon="4.57345">
        <ele>725</ele>
        <time>2011-08-01T12:16:41.000Z</time>
      </trkpt>
      <trkpt lat="45.66609" lon="4.57342">
        <ele>724</ele>
        <time>2011-08-01T12:16:49.000Z</time>
      </trkpt>
      <trkpt lat="45.66611" lon="4.57341">
        <ele>724</ele>
        <time>2011-08-01T12:16:51.000Z</time>
      </trkpt>
      <trkpt lat="45.66613" lon="4.5734">
        <ele>723</ele>
        <time>2011-08-01T12:16:53.000Z</time>
      </trkpt>
      <trkpt lat="45.66616" lon="4.57338">
        <ele>723</ele>
        <time>2011-08-01T12:16:55.000Z</time>
      </trkpt>
      <trkpt lat="45.66628" lon="4.57334">
        <ele>722</ele>
        <time>2011-08-01T12:17:05.000Z</time>
      </trkpt>
      <trkpt lat="45.6663" lon="4.57333">
        <ele>722</ele>
        <time>2011-08-01T12:17:07.000Z</time>
      </trkpt>
      <trkpt lat="45.66636" lon="4.57332">
        <ele>721</ele>
        <time>2011-08-01T12:17:11.000Z</time>
      </trkpt>
      <trkpt lat="45.66648" lon="4.57331">
        <ele>720</ele>
        <time>2011-08-01T12:17:19.000Z</time>
      </trkpt>
      <trkpt lat="45.66657" lon="4.5733">
        <ele>719</ele>
        <time>2011-08-01T12:17:25.000Z</time>
      </trkpt>
      <trkpt lat="45.6666" lon="4.5733">
        <ele>718</ele>
        <time>2011-08-01T12:17:27.000Z</time>
      </trkpt>
      <trkpt lat="45.66671" lon="4.57329">
        <ele>717</ele>
        <time>2011-08-01T12:17:35.000Z</time>
      </trkpt>
      <trkpt lat="45.66676" lon="4.57329">
        <ele>716</ele>
        <time>2011-08-01T12:17:39.000Z</time>
      </trkpt>
      <trkpt lat="45.66679" lon="4.57329">
        <ele>715</ele>
        <time>2011-08-01T12:17:43.000Z</time>
      </trkpt>
      <trkpt lat="45.66685" lon="4.57327">
        <ele>715</ele>
        <time>2011-08-01T12:17:51.000Z</time>
      </trkpt>
      <trkpt lat="45.66685" lon="4.57327">
        <ele>715</ele>
        <time>2011-08-01T12:17:53.000Z</time>
      </trkpt>
      <trkpt lat="45.66688" lon="4.57327">
        <ele>714</ele>
        <time>2011-08-01T12:17:55.000Z</time>
      </trkpt>
      <trkpt lat="45.66697" lon="4.57327">
        <ele>713</ele>
        <time>2011-08-01T12:18:05.000Z</time>
      </trkpt>
      <trkpt lat="45.66715" lon="4.57327">
        <ele>712</ele>
        <time>2011-08-01T12:18:21.000Z</time>
      </trkpt>
      <trkpt lat="45.66718" lon="4.57327">
        <ele>713</ele>
        <time>2011-08-01T12:18:23.000Z</time>
      </trkpt>
      <trkpt lat="45.66764" lon="4.57331">
        <ele>713</ele>
        <time>2011-08-01T12:18:51.000Z</time>
      </trkpt>
      <trkpt lat="45.66766" lon="4.5733">
        <ele>713</ele>
        <time>2011-08-01T12:18:53.000Z</time>
      </trkpt>
      <trkpt lat="45.66798" lon="4.5732">
        <ele>720</ele>
        <time>2011-08-01T12:20:03.000Z</time>
      </trkpt>
      <trkpt lat="45.668" lon="4.57316">
        <ele>720</ele>
        <time>2011-08-01T12:20:11.000Z</time>
      </trkpt>
      <trkpt lat="45.66801" lon="4.57315">
        <ele>722</ele>
        <time>2011-08-01T12:20:13.000Z</time>
      </trkpt>
      <trkpt lat="45.66805" lon="4.57314">
        <ele>723</ele>
        <time>2011-08-01T12:20:15.000Z</time>
      </trkpt>
      <trkpt lat="45.66809" lon="4.57313">
        <ele>725</ele>
        <time>2011-08-01T12:20:17.000Z</time>
      </trkpt>
      <trkpt lat="45.66811" lon="4.57313">
        <ele>727</ele>
        <time>2011-08-01T12:20:19.000Z</time>
      </trkpt>
      <trkpt lat="45.6681" lon="4.57313">
        <ele>728</ele>
        <time>2011-08-01T12:20:21.000Z</time>
      </trkpt>
      <trkpt lat="45.66814" lon="4.57314">
        <ele>730</ele>
        <time>2011-08-01T12:20:25.000Z</time>
      </trkpt>
      <trkpt lat="45.66816" lon="4.57313">
        <ele>731</ele>
        <time>2011-08-01T12:20:27.000Z</time>
      </trkpt>
      <trkpt lat="45.66819" lon="4.57313">
        <ele>732</ele>
        <time>2011-08-01T12:20:29.000Z</time>
      </trkpt>
      <trkpt lat="45.66821" lon="4.57312">
        <ele>734</ele>
        <time>2011-08-01T12:20:31.000Z</time>
      </trkpt>
      <trkpt lat="45.66825" lon="4.5731">
        <ele>735</ele>
        <time>2011-08-01T12:20:35.000Z</time>
      </trkpt>
      <trkpt lat="45.66827" lon="4.57308">
        <ele>736</ele>
        <time>2011-08-01T12:20:37.000Z</time>
      </trkpt>
      <trkpt lat="45.66829" lon="4.57308">
        <ele>737</ele>
        <time>2011-08-01T12:20:39.000Z</time>
      </trkpt>
      <trkpt lat="45.66829" lon="4.57308">
        <ele>737</ele>
        <time>2011-08-01T12:20:59.000Z</time>
      </trkpt>
      <trkpt lat="45.6685" lon="4.57306">
        <ele>732</ele>
        <time>2011-08-01T12:21:07.000Z</time>
      </trkpt>
      <trkpt lat="45.66867" lon="4.57319">
        <ele>733</ele>
        <time>2011-08-01T12:21:27.000Z</time>
      </trkpt>
      <trkpt lat="45.66867" lon="4.5732">
        <ele>733</ele>
        <time>2011-08-01T12:21:29.000Z</time>
      </trkpt>
      <trkpt lat="45.66868" lon="4.57324">
        <ele>732</ele>
        <time>2011-08-01T12:21:31.000Z</time>
      </trkpt>
      <trkpt lat="45.66869" lon="4.57329">
        <ele>731</ele>
        <time>2011-08-01T12:21:35.000Z</time>
      </trkpt>
      <trkpt lat="45.66869" lon="4.57332">
        <ele>730</ele>
        <time>2011-08-01T12:21:37.000Z</time>
      </trkpt>
      <trkpt lat="45.66869" lon="4.57334">
        <ele>730</ele>
        <time>2011-08-01T12:21:39.000Z</time>
      </trkpt>
      <trkpt lat="45.66869" lon="4.57334">
        <ele>730</ele>
        <time>2011-08-01T12:21:59.000Z</time>
      </trkpt>
      <trkpt lat="45.66872" lon="4.57372">
        <ele>727</ele>
        <time>2011-08-01T12:23:07.000Z</time>
      </trkpt>
      <trkpt lat="45.66845" lon="4.57383">
        <ele>726</ele>
        <time>2011-08-01T12:23:35.000Z</time>
      </trkpt>
      <trkpt lat="45.66843" lon="4.57385">
        <ele>725</ele>
        <time>2011-08-01T12:23:41.000Z</time>
      </trkpt>
      <trkpt lat="45.66843" lon="4.57386">
        <ele>724</ele>
        <time>2011-08-01T12:23:43.000Z</time>
      </trkpt>
      <trkpt lat="45.66842" lon="4.57387">
        <ele>723</ele>
        <time>2011-08-01T12:23:45.000Z</time>
      </trkpt>
      <trkpt lat="45.66841" lon="4.57389">
        <ele>722</ele>
        <time>2011-08-01T12:23:49.000Z</time>
      </trkpt>
      <trkpt lat="45.66841" lon="4.57389">
        <ele>721</ele>
        <time>2011-08-01T12:23:51.000Z</time>
      </trkpt>
      <trkpt lat="45.66842" lon="4.57389">
        <ele>720</ele>
        <time>2011-08-01T12:23:53.000Z</time>
      </trkpt>
      <trkpt lat="45.66843" lon="4.57394">
        <ele>719</ele>
        <time>2011-08-01T12:23:59.000Z</time>
      </trkpt>
      <trkpt lat="45.66843" lon="4.57394">
        <ele>719</ele>
        <time>2011-08-01T12:24:01.000Z</time>
      </trkpt>
      <trkpt lat="45.66849" lon="4.57402">
        <ele>717</ele>
        <time>2011-08-01T12:24:21.000Z</time>
      </trkpt>
      <trkpt lat="45.66853" lon="4.57404">
        <ele>716</ele>
        <time>2011-08-01T12:24:25.000Z</time>
      </trkpt>
      <trkpt lat="45.66856" lon="4.57407">
        <ele>715</ele>
        <time>2011-08-01T12:24:29.000Z</time>
      </trkpt>
      <trkpt lat="45.66857" lon="4.57408">
        <ele>714</ele>
        <time>2011-08-01T12:24:31.000Z</time>
      </trkpt>
      <trkpt lat="45.66862" lon="4.57413">
        <ele>713</ele>
        <time>2011-08-01T12:24:37.000Z</time>
      </trkpt>
      <trkpt lat="45.66863" lon="4.57414">
        <ele>712</ele>
        <time>2011-08-01T12:24:39.000Z</time>
      </trkpt>
      <trkpt lat="45.66867" lon="4.57419">
        <ele>712</ele>
        <time>2011-08-01T12:24:41.000Z</time>
      </trkpt>
      <trkpt lat="45.6687" lon="4.57422">
        <ele>711</ele>
        <time>2011-08-01T12:24:43.000Z</time>
      </trkpt>
      <trkpt lat="45.66875" lon="4.57428">
        <ele>710</ele>
        <time>2011-08-01T12:24:47.000Z</time>
      </trkpt>
      <trkpt lat="45.66877" lon="4.57431">
        <ele>709</ele>
        <time>2011-08-01T12:24:49.000Z</time>
      </trkpt>
      <trkpt lat="45.66879" lon="4.57434">
        <ele>709</ele>
        <time>2011-08-01T12:24:51.000Z</time>
      </trkpt>
      <trkpt lat="45.66879" lon="4.57434">
        <ele>709</ele>
        <time>2011-08-01T12:25:11.000Z</time>
      </trkpt>
      <trkpt lat="45.66878" lon="4.57464">
        <ele>706</ele>
        <time>2011-08-01T12:25:15.000Z</time>
      </trkpt>
      <trkpt lat="45.66877" lon="4.57466">
        <ele>706</ele>
        <time>2011-08-01T12:25:17.000Z</time>
      </trkpt>
      <trkpt lat="45.66875" lon="4.57468">
        <ele>705</ele>
        <time>2011-08-01T12:25:19.000Z</time>
      </trkpt>
      <trkpt lat="45.66875" lon="4.57468">
        <ele>704</ele>
        <time>2011-08-01T12:25:21.000Z</time>
      </trkpt>
      <trkpt lat="45.66874" lon="4.57469">
        <ele>703</ele>
        <time>2011-08-01T12:25:23.000Z</time>
      </trkpt>
      <trkpt lat="45.66874" lon="4.57469">
        <ele>703</ele>
        <time>2011-08-01T12:25:43.000Z</time>
      </trkpt>
      <trkpt lat="45.66846" lon="4.57485">
        <ele>702</ele>
        <time>2011-08-01T12:25:45.000Z</time>
      </trkpt>
      <trkpt lat="45.66838" lon="4.57485">
        <ele>701</ele>
        <time>2011-08-01T12:25:49.000Z</time>
      </trkpt>
      <trkpt lat="45.66809" lon="4.57496">
        <ele>696</ele>
        <time>2011-08-01T12:26:15.000Z</time>
      </trkpt>
      <trkpt lat="45.66808" lon="4.57497">
        <ele>696</ele>
        <time>2011-08-01T12:26:17.000Z</time>
      </trkpt>
      <trkpt lat="45.66803" lon="4.57506">
        <ele>694</ele>
        <time>2011-08-01T12:26:23.000Z</time>
      </trkpt>
      <trkpt lat="45.66801" lon="4.57509">
        <ele>693</ele>
        <time>2011-08-01T12:26:25.000Z</time>
      </trkpt>
      <trkpt lat="45.66799" lon="4.57512">
        <ele>692</ele>
        <time>2011-08-01T12:26:27.000Z</time>
      </trkpt>
      <trkpt lat="45.66798" lon="4.57513">
        <ele>690</ele>
        <time>2011-08-01T12:26:29.000Z</time>
      </trkpt>
      <trkpt lat="45.6679" lon="4.57524">
        <ele>690</ele>
        <time>2011-08-01T12:26:37.000Z</time>
      </trkpt>
      <trkpt lat="45.66789" lon="4.57525">
        <ele>688</ele>
        <time>2011-08-01T12:26:39.000Z</time>
      </trkpt>
      <trkpt lat="45.66782" lon="4.57533">
        <ele>687</ele>
        <time>2011-08-01T12:26:45.000Z</time>
      </trkpt>
      <trkpt lat="45.6678" lon="4.57536">
        <ele>686</ele>
        <time>2011-08-01T12:26:47.000Z</time>
      </trkpt>
      <trkpt lat="45.6678" lon="4.57537">
        <ele>685</ele>
        <time>2011-08-01T12:26:49.000Z</time>
      </trkpt>
      <trkpt lat="45.66777" lon="4.57541">
        <ele>684</ele>
        <time>2011-08-01T12:26:51.000Z</time>
      </trkpt>
      <trkpt lat="45.66772" lon="4.57545">
        <ele>683</ele>
        <time>2011-08-01T12:26:55.000Z</time>
      </trkpt>
      <trkpt lat="45.66772" lon="4.57546">
        <ele>683</ele>
        <time>2011-08-01T12:26:57.000Z</time>
      </trkpt>
      <trkpt lat="45.66763" lon="4.57554">
        <ele>678</ele>
        <time>2011-08-01T12:27:05.000Z</time>
      </trkpt>
      <trkpt lat="45.66752" lon="4.5756">
        <ele>677</ele>
        <time>2011-08-01T12:27:13.000Z</time>
      </trkpt>
      <trkpt lat="45.66751" lon="4.57561">
        <ele>676</ele>
        <time>2011-08-01T12:27:15.000Z</time>
      </trkpt>
      <trkpt lat="45.6674" lon="4.57566">
        <ele>674</ele>
        <time>2011-08-01T12:27:19.000Z</time>
      </trkpt>
      <trkpt lat="45.66738" lon="4.57567">
        <ele>673</ele>
        <time>2011-08-01T12:27:21.000Z</time>
      </trkpt>
      <trkpt lat="45.66728" lon="4.57572">
        <ele>671</ele>
        <time>2011-08-01T12:27:25.000Z</time>
      </trkpt>
      <trkpt lat="45.66719" lon="4.57575">
        <ele>670</ele>
        <time>2011-08-01T12:27:35.000Z</time>
      </trkpt>
      <trkpt lat="45.66714" lon="4.57577">
        <ele>669</ele>
        <time>2011-08-01T12:27:41.000Z</time>
      </trkpt>
      <trkpt lat="45.66713" lon="4.57577">
        <ele>668</ele>
        <time>2011-08-01T12:27:43.000Z</time>
      </trkpt>
      <trkpt lat="45.6669" lon="4.57585">
        <ele>666</ele>
        <time>2011-08-01T12:27:59.000Z</time>
      </trkpt>
      <trkpt lat="45.66688" lon="4.57585">
        <ele>665</ele>
        <time>2011-08-01T12:28:01.000Z</time>
      </trkpt>
      <trkpt lat="45.66671" lon="4.57595">
        <ele>664</ele>
        <time>2011-08-01T12:28:19.000Z</time>
      </trkpt>
      <trkpt lat="45.66667" lon="4.57599">
        <ele>662</ele>
        <time>2011-08-01T12:28:23.000Z</time>
      </trkpt>
      <trkpt lat="45.66665" lon="4.57602">
        <ele>661</ele>
        <time>2011-08-01T12:28:25.000Z</time>
      </trkpt>
      <trkpt lat="45.66662" lon="4.57609">
        <ele>660</ele>
        <time>2011-08-01T12:28:29.000Z</time>
      </trkpt>
      <trkpt lat="45.6666" lon="4.57613">
        <ele>659</ele>
        <time>2011-08-01T12:28:31.000Z</time>
      </trkpt>
      <trkpt lat="45.66659" lon="4.57618">
        <ele>657</ele>
        <time>2011-08-01T12:28:33.000Z</time>
      </trkpt>
      <trkpt lat="45.66658" lon="4.57622">
        <ele>656</ele>
        <time>2011-08-01T12:28:35.000Z</time>
      </trkpt>
      <trkpt lat="45.66656" lon="4.57627">
        <ele>655</ele>
        <time>2011-08-01T12:28:37.000Z</time>
      </trkpt>
      <trkpt lat="45.66656" lon="4.5763">
        <ele>654</ele>
        <time>2011-08-01T12:28:39.000Z</time>
      </trkpt>
      <trkpt lat="45.66654" lon="4.57644">
        <ele>652</ele>
        <time>2011-08-01T12:28:43.000Z</time>
      </trkpt>
      <trkpt lat="45.66653" lon="4.57649">
        <ele>651</ele>
        <time>2011-08-01T12:28:45.000Z</time>
      </trkpt>
      <trkpt lat="45.66652" lon="4.57655">
        <ele>650</ele>
        <time>2011-08-01T12:28:47.000Z</time>
      </trkpt>
      <trkpt lat="45.6665" lon="4.57669">
        <ele>648</ele>
        <time>2011-08-01T12:28:55.000Z</time>
      </trkpt>
      <trkpt lat="45.66647" lon="4.5768">
        <ele>647</ele>
        <time>2011-08-01T12:29:03.000Z</time>
      </trkpt>
      <trkpt lat="45.66647" lon="4.57681">
        <ele>648</ele>
        <time>2011-08-01T12:29:05.000Z</time>
      </trkpt>
      <trkpt lat="45.66645" lon="4.57689">
        <ele>647</ele>
        <time>2011-08-01T12:29:13.000Z</time>
      </trkpt>
      <trkpt lat="45.66644" lon="4.57691">
        <ele>646</ele>
        <time>2011-08-01T12:29:15.000Z</time>
      </trkpt>
      <trkpt lat="45.66639" lon="4.57705">
        <ele>645</ele>
        <time>2011-08-01T12:29:21.000Z</time>
      </trkpt>
      <trkpt lat="45.66635" lon="4.57714">
        <ele>644</ele>
        <time>2011-08-01T12:29:25.000Z</time>
      </trkpt>
      <trkpt lat="45.66629" lon="4.57724">
        <ele>643</ele>
        <time>2011-08-01T12:29:31.000Z</time>
      </trkpt>
      <trkpt lat="45.66619" lon="4.57742">
        <ele>642</ele>
        <time>2011-08-01T12:29:41.000Z</time>
      </trkpt>
      <trkpt lat="45.66616" lon="4.57746">
        <ele>641</ele>
        <time>2011-08-01T12:29:43.000Z</time>
      </trkpt>
      <trkpt lat="45.66611" lon="4.57755">
        <ele>640</ele>
        <time>2011-08-01T12:29:47.000Z</time>
      </trkpt>
      <trkpt lat="45.66603" lon="4.57773">
        <ele>639</ele>
        <time>2011-08-01T12:29:55.000Z</time>
      </trkpt>
      <trkpt lat="45.66602" lon="4.57778">
        <ele>639</ele>
        <time>2011-08-01T12:29:57.000Z</time>
      </trkpt>
      <trkpt lat="45.66601" lon="4.57783">
        <ele>638</ele>
        <time>2011-08-01T12:29:59.000Z</time>
      </trkpt>
      <trkpt lat="45.666" lon="4.57788">
        <ele>638</ele>
        <time>2011-08-01T12:30:01.000Z</time>
      </trkpt>
      <trkpt lat="45.66599" lon="4.57799">
        <ele>637</ele>
        <time>2011-08-01T12:30:05.000Z</time>
      </trkpt>
      <trkpt lat="45.66599" lon="4.57814">
        <ele>639</ele>
        <time>2011-08-01T12:30:13.000Z</time>
      </trkpt>
      <trkpt lat="45.66599" lon="4.57817">
        <ele>638</ele>
        <time>2011-08-01T12:30:15.000Z</time>
      </trkpt>
      <trkpt lat="45.66605" lon="4.57878">
        <ele>638</ele>
        <time>2011-08-01T12:30:47.000Z</time>
      </trkpt>
      <trkpt lat="45.66607" lon="4.57884">
        <ele>638</ele>
        <time>2011-08-01T12:30:49.000Z</time>
      </trkpt>
      <trkpt lat="45.6661" lon="4.5789">
        <ele>637</ele>
        <time>2011-08-01T12:30:51.000Z</time>
      </trkpt>
      <trkpt lat="45.66626" lon="4.57922">
        <ele>636</ele>
        <time>2011-08-01T12:31:03.000Z</time>
      </trkpt>
      <trkpt lat="45.66629" lon="4.57929">
        <ele>635</ele>
        <time>2011-08-01T12:31:07.000Z</time>
      </trkpt>
      <trkpt lat="45.66632" lon="4.57941">
        <ele>634</ele>
        <time>2011-08-01T12:31:11.000Z</time>
      </trkpt>
      <trkpt lat="45.66632" lon="4.57945">
        <ele>633</ele>
        <time>2011-08-01T12:31:13.000Z</time>
      </trkpt>
      <trkpt lat="45.66631" lon="4.57949">
        <ele>633</ele>
        <time>2011-08-01T12:31:15.000Z</time>
      </trkpt>
      <trkpt lat="45.6663" lon="4.57953">
        <ele>632</ele>
        <time>2011-08-01T12:31:17.000Z</time>
      </trkpt>
      <trkpt lat="45.66624" lon="4.57958">
        <ele>631</ele>
        <time>2011-08-01T12:31:23.000Z</time>
      </trkpt>
      <trkpt lat="45.66615" lon="4.57965">
        <ele>630</ele>
        <time>2011-08-01T12:31:31.000Z</time>
      </trkpt>
      <trkpt lat="45.66612" lon="4.57967">
        <ele>630</ele>
        <time>2011-08-01T12:31:33.000Z</time>
      </trkpt>
      <trkpt lat="45.66611" lon="4.57968">
        <ele>629</ele>
        <time>2011-08-01T12:31:35.000Z</time>
      </trkpt>
      <trkpt lat="45.66606" lon="4.57971">
        <ele>628</ele>
        <time>2011-08-01T12:31:37.000Z</time>
      </trkpt>
      <trkpt lat="45.66601" lon="4.57973">
        <ele>627</ele>
        <time>2011-08-01T12:31:41.000Z</time>
      </trkpt>
      <trkpt lat="45.66584" lon="4.57979">
        <ele>626</ele>
        <time>2011-08-01T12:31:51.000Z</time>
      </trkpt>
      <trkpt lat="45.66574" lon="4.57983">
        <ele>625</ele>
        <time>2011-08-01T12:31:57.000Z</time>
      </trkpt>
      <trkpt lat="45.66572" lon="4.57984">
        <ele>625</ele>
        <time>2011-08-01T12:31:59.000Z</time>
      </trkpt>
      <trkpt lat="45.66563" lon="4.57992">
        <ele>624</ele>
        <time>2011-08-01T12:32:05.000Z</time>
      </trkpt>
      <trkpt lat="45.66552" lon="4.58003">
        <ele>625</ele>
        <time>2011-08-01T12:32:17.000Z</time>
      </trkpt>
      <trkpt lat="45.66549" lon="4.58007">
        <ele>624</ele>
        <time>2011-08-01T12:32:19.000Z</time>
      </trkpt>
      <trkpt lat="45.66541" lon="4.58018">
        <ele>623</ele>
        <time>2011-08-01T12:32:29.000Z</time>
      </trkpt>
      <trkpt lat="45.66535" lon="4.58029">
        <ele>623</ele>
        <time>2011-08-01T12:32:39.000Z</time>
      </trkpt>
      <trkpt lat="45.66528" lon="4.5804">
        <ele>622</ele>
        <time>2011-08-01T12:32:49.000Z</time>
      </trkpt>
      <trkpt lat="45.6652" lon="4.58049">
        <ele>623</ele>
        <time>2011-08-01T12:33:01.000Z</time>
      </trkpt>
      <trkpt lat="45.66518" lon="4.5805">
        <ele>622</ele>
        <time>2011-08-01T12:33:03.000Z</time>
      </trkpt>
      <trkpt lat="45.66518" lon="4.5805">
        <ele>622</ele>
        <time>2011-08-01T12:33:05.000Z</time>
      </trkpt>
      <trkpt lat="45.66509" lon="4.58054">
        <ele>624</ele>
        <time>2011-08-01T12:33:15.000Z</time>
      </trkpt>
      <trkpt lat="45.66507" lon="4.58055">
        <ele>623</ele>
        <time>2011-08-01T12:33:17.000Z</time>
      </trkpt>
      <trkpt lat="45.66504" lon="4.58056">
        <ele>624</ele>
        <time>2011-08-01T12:33:21.000Z</time>
      </trkpt>
      <trkpt lat="45.66493" lon="4.58061">
        <ele>625</ele>
        <time>2011-08-01T12:33:31.000Z</time>
      </trkpt>
      <trkpt lat="45.66491" lon="4.58062">
        <ele>625</ele>
        <time>2011-08-01T12:33:33.000Z</time>
      </trkpt>
      <trkpt lat="45.66479" lon="4.58064">
        <ele>626</ele>
        <time>2011-08-01T12:33:41.000Z</time>
      </trkpt>
      <trkpt lat="45.66474" lon="4.58066">
        <ele>626</ele>
        <time>2011-08-01T12:33:45.000Z</time>
      </trkpt>
      <trkpt lat="45.66471" lon="4.58067">
        <ele>627</ele>
        <time>2011-08-01T12:33:47.000Z</time>
      </trkpt>
      <trkpt lat="45.66467" lon="4.5807">
        <ele>627</ele>
        <time>2011-08-01T12:33:51.000Z</time>
      </trkpt>
      <trkpt lat="45.66464" lon="4.58073">
        <ele>628</ele>
        <time>2011-08-01T12:33:53.000Z</time>
      </trkpt>
      <trkpt lat="45.6646" lon="4.58077">
        <ele>628</ele>
        <time>2011-08-01T12:33:57.000Z</time>
      </trkpt>
      <trkpt lat="45.66453" lon="4.58088">
        <ele>629</ele>
        <time>2011-08-01T12:34:05.000Z</time>
      </trkpt>
      <trkpt lat="45.66451" lon="4.58093">
        <ele>628</ele>
        <time>2011-08-01T12:34:07.000Z</time>
      </trkpt>
      <trkpt lat="45.66449" lon="4.58096">
        <ele>629</ele>
        <time>2011-08-01T12:34:09.000Z</time>
      </trkpt>
      <trkpt lat="45.66447" lon="4.58099">
        <ele>628</ele>
        <time>2011-08-01T12:34:11.000Z</time>
      </trkpt>
      <trkpt lat="45.66446" lon="4.58101">
        <ele>629</ele>
        <time>2011-08-01T12:34:13.000Z</time>
      </trkpt>
      <trkpt lat="45.66438" lon="4.58112">
        <ele>628</ele>
        <time>2011-08-01T12:34:19.000Z</time>
      </trkpt>
      <trkpt lat="45.66436" lon="4.58114">
        <ele>628</ele>
        <time>2011-08-01T12:34:21.000Z</time>
      </trkpt>
      <trkpt lat="45.66402" lon="4.58151">
        <ele>628</ele>
        <time>2011-08-01T12:34:51.000Z</time>
      </trkpt>
      <trkpt lat="45.66399" lon="4.58156">
        <ele>628</ele>
        <time>2011-08-01T12:34:55.000Z</time>
      </trkpt>
      <trkpt lat="45.6639" lon="4.58169">
        <ele>626</ele>
        <time>2011-08-01T12:35:05.000Z</time>
      </trkpt>
      <trkpt lat="45.66383" lon="4.58177">
        <ele>626</ele>
        <time>2011-08-01T12:35:13.000Z</time>
      </trkpt>
      <trkpt lat="45.66379" lon="4.5818">
        <ele>625</ele>
        <time>2011-08-01T12:35:15.000Z</time>
      </trkpt>
      <trkpt lat="45.66375" lon="4.58185">
        <ele>624</ele>
        <time>2011-08-01T12:35:19.000Z</time>
      </trkpt>
      <trkpt lat="45.66366" lon="4.58193">
        <ele>623</ele>
        <time>2011-08-01T12:35:27.000Z</time>
      </trkpt>
      <trkpt lat="45.66362" lon="4.58197">
        <ele>622</ele>
        <time>2011-08-01T12:35:31.000Z</time>
      </trkpt>
      <trkpt lat="45.66358" lon="4.58201">
        <ele>621</ele>
        <time>2011-08-01T12:35:35.000Z</time>
      </trkpt>
      <trkpt lat="45.6635" lon="4.5821">
        <ele>620</ele>
        <time>2011-08-01T12:35:43.000Z</time>
      </trkpt>
      <trkpt lat="45.66345" lon="4.58214">
        <ele>619</ele>
        <time>2011-08-01T12:35:47.000Z</time>
      </trkpt>
      <trkpt lat="45.66342" lon="4.58218">
        <ele>618</ele>
        <time>2011-08-01T12:35:51.000Z</time>
      </trkpt>
      <trkpt lat="45.66327" lon="4.58229">
        <ele>617</ele>
        <time>2011-08-01T12:36:03.000Z</time>
      </trkpt>
      <trkpt lat="45.66325" lon="4.5823">
        <ele>616</ele>
        <time>2011-08-01T12:36:05.000Z</time>
      </trkpt>
      <trkpt lat="45.6632" lon="4.58232">
        <ele>616</ele>
        <time>2011-08-01T12:36:09.000Z</time>
      </trkpt>
      <trkpt lat="45.66316" lon="4.58233">
        <ele>615</ele>
        <time>2011-08-01T12:36:11.000Z</time>
      </trkpt>
      <trkpt lat="45.66313" lon="4.58233">
        <ele>615</ele>
        <time>2011-08-01T12:36:13.000Z</time>
      </trkpt>
      <trkpt lat="45.66299" lon="4.58232">
        <ele>614</ele>
        <time>2011-08-01T12:36:23.000Z</time>
      </trkpt>
      <trkpt lat="45.66293" lon="4.58233">
        <ele>614</ele>
        <time>2011-08-01T12:36:27.000Z</time>
      </trkpt>
      <trkpt lat="45.66291" lon="4.58233">
        <ele>614</ele>
        <time>2011-08-01T12:36:29.000Z</time>
      </trkpt>
      <trkpt lat="45.66281" lon="4.58236">
        <ele>613</ele>
        <time>2011-08-01T12:36:39.000Z</time>
      </trkpt>
      <trkpt lat="45.66279" lon="4.58235">
        <ele>613</ele>
        <time>2011-08-01T12:36:43.000Z</time>
      </trkpt>
      <trkpt lat="45.66278" lon="4.58235">
        <ele>613</ele>
        <time>2011-08-01T12:36:45.000Z</time>
      </trkpt>
      <trkpt lat="45.66272" lon="4.58236">
        <ele>612</ele>
        <time>2011-08-01T12:36:51.000Z</time>
      </trkpt>
      <trkpt lat="45.66268" lon="4.58238">
        <ele>612</ele>
        <time>2011-08-01T12:36:55.000Z</time>
      </trkpt>
      <trkpt lat="45.66265" lon="4.5824">
        <ele>612</ele>
        <time>2011-08-01T12:36:57.000Z</time>
      </trkpt>
      <trkpt lat="45.66255" lon="4.58256">
        <ele>607</ele>
        <time>2011-08-01T12:37:13.000Z</time>
      </trkpt>
      <trkpt lat="45.66254" lon="4.58261">
        <ele>607</ele>
        <time>2011-08-01T12:37:15.000Z</time>
      </trkpt>
      <trkpt lat="45.66251" lon="4.58274">
        <ele>606</ele>
        <time>2011-08-01T12:37:23.000Z</time>
      </trkpt>
      <trkpt lat="45.6625" lon="4.58277">
        <ele>605</ele>
        <time>2011-08-01T12:37:25.000Z</time>
      </trkpt>
      <trkpt lat="45.6625" lon="4.58279">
        <ele>603</ele>
        <time>2011-08-01T12:37:27.000Z</time>
      </trkpt>
      <trkpt lat="45.66248" lon="4.58292">
        <ele>601</ele>
        <time>2011-08-01T12:37:35.000Z</time>
      </trkpt>
      <trkpt lat="45.66248" lon="4.58298">
        <ele>600</ele>
        <time>2011-08-01T12:37:39.000Z</time>
      </trkpt>
      <trkpt lat="45.66248" lon="4.583">
        <ele>599</ele>
        <time>2011-08-01T12:37:41.000Z</time>
      </trkpt>
      <trkpt lat="45.66251" lon="4.58315">
        <ele>597</ele>
        <time>2011-08-01T12:37:49.000Z</time>
      </trkpt>
      <trkpt lat="45.66251" lon="4.58318">
        <ele>596</ele>
        <time>2011-08-01T12:37:51.000Z</time>
      </trkpt>
      <trkpt lat="45.66254" lon="4.58324">
        <ele>595</ele>
        <time>2011-08-01T12:37:53.000Z</time>
      </trkpt>
      <trkpt lat="45.66256" lon="4.58328">
        <ele>594</ele>
        <time>2011-08-01T12:37:55.000Z</time>
      </trkpt>
      <trkpt lat="45.66261" lon="4.58337">
        <ele>591</ele>
        <time>2011-08-01T12:38:03.000Z</time>
      </trkpt>
      <trkpt lat="45.66262" lon="4.58339">
        <ele>590</ele>
        <time>2011-08-01T12:38:05.000Z</time>
      </trkpt>
      <trkpt lat="45.66264" lon="4.58342">
        <ele>591</ele>
        <time>2011-08-01T12:38:07.000Z</time>
      </trkpt>
      <trkpt lat="45.66264" lon="4.58345">
        <ele>590</ele>
        <time>2011-08-01T12:38:09.000Z</time>
      </trkpt>
      <trkpt lat="45.66265" lon="4.5835">
        <ele>589</ele>
        <time>2011-08-01T12:38:13.000Z</time>
      </trkpt>
      <trkpt lat="45.66266" lon="4.58354">
        <ele>588</ele>
        <time>2011-08-01T12:38:15.000Z</time>
      </trkpt>
      <trkpt lat="45.66267" lon="4.58355">
        <ele>588</ele>
        <time>2011-08-01T12:38:17.000Z</time>
      </trkpt>
      <trkpt lat="45.66268" lon="4.5836">
        <ele>587</ele>
        <time>2011-08-01T12:38:19.000Z</time>
      </trkpt>
      <trkpt lat="45.6627" lon="4.58376">
        <ele>586</ele>
        <time>2011-08-01T12:38:25.000Z</time>
      </trkpt>
      <trkpt lat="45.6627" lon="4.58398">
        <ele>585</ele>
        <time>2011-08-01T12:38:31.000Z</time>
      </trkpt>
      <trkpt lat="45.6627" lon="4.58403">
        <ele>584</ele>
        <time>2011-08-01T12:38:33.000Z</time>
      </trkpt>
      <trkpt lat="45.6627" lon="4.58412">
        <ele>583</ele>
        <time>2011-08-01T12:38:37.000Z</time>
      </trkpt>
      <trkpt lat="45.66269" lon="4.58423">
        <ele>582</ele>
        <time>2011-08-01T12:38:43.000Z</time>
      </trkpt>
      <trkpt lat="45.66269" lon="4.58428">
        <ele>581</ele>
        <time>2011-08-01T12:38:47.000Z</time>
      </trkpt>
      <trkpt lat="45.66268" lon="4.5843">
        <ele>581</ele>
        <time>2011-08-01T12:38:49.000Z</time>
      </trkpt>
      <trkpt lat="45.66268" lon="4.58431">
        <ele>580</ele>
        <time>2011-08-01T12:38:51.000Z</time>
      </trkpt>
      <trkpt lat="45.66267" lon="4.58438">
        <ele>580</ele>
        <time>2011-08-01T12:38:55.000Z</time>
      </trkpt>
      <trkpt lat="45.66266" lon="4.58442">
        <ele>579</ele>
        <time>2011-08-01T12:38:57.000Z</time>
      </trkpt>
      <trkpt lat="45.66266" lon="4.58448">
        <ele>578</ele>
        <time>2011-08-01T12:39:01.000Z</time>
      </trkpt>
      <trkpt lat="45.66265" lon="4.5846">
        <ele>577</ele>
        <time>2011-08-01T12:39:07.000Z</time>
      </trkpt>
      <trkpt lat="45.66264" lon="4.58468">
        <ele>576</ele>
        <time>2011-08-01T12:39:11.000Z</time>
      </trkpt>
      <trkpt lat="45.66262" lon="4.58483">
        <ele>575</ele>
        <time>2011-08-01T12:39:19.000Z</time>
      </trkpt>
      <trkpt lat="45.66261" lon="4.58489">
        <ele>574</ele>
        <time>2011-08-01T12:39:21.000Z</time>
      </trkpt>
      <trkpt lat="45.6626" lon="4.58493">
        <ele>574</ele>
        <time>2011-08-01T12:39:23.000Z</time>
      </trkpt>
      <trkpt lat="45.6626" lon="4.58498">
        <ele>573</ele>
        <time>2011-08-01T12:39:25.000Z</time>
      </trkpt>
      <trkpt lat="45.66261" lon="4.58511">
        <ele>572</ele>
        <time>2011-08-01T12:39:31.000Z</time>
      </trkpt>
      <trkpt lat="45.66261" lon="4.58515">
        <ele>571</ele>
        <time>2011-08-01T12:39:33.000Z</time>
      </trkpt>
      <trkpt lat="45.66262" lon="4.58521">
        <ele>570</ele>
        <time>2011-08-01T12:39:37.000Z</time>
      </trkpt>
      <trkpt lat="45.66262" lon="4.58528">
        <ele>569</ele>
        <time>2011-08-01T12:39:39.000Z</time>
      </trkpt>
      <trkpt lat="45.66263" lon="4.58536">
        <ele>568</ele>
        <time>2011-08-01T12:39:43.000Z</time>
      </trkpt>
      <trkpt lat="45.66236" lon="4.58541">
        <ele>567</ele>
        <time>2011-08-01T12:40:33.000Z</time>
      </trkpt>
      <trkpt lat="45.6623" lon="4.5854">
        <ele>567</ele>
        <time>2011-08-01T12:40:39.000Z</time>
      </trkpt>
      <trkpt lat="45.6623" lon="4.58541">
        <ele>566</ele>
        <time>2011-08-01T12:40:41.000Z</time>
      </trkpt>
      <trkpt lat="45.6623" lon="4.5854">
        <ele>566</ele>
        <time>2011-08-01T12:40:43.000Z</time>
      </trkpt>
      <trkpt lat="45.66229" lon="4.58541">
        <ele>565</ele>
        <time>2011-08-01T12:40:45.000Z</time>
      </trkpt>
      <trkpt lat="45.66229" lon="4.58541">
        <ele>565</ele>
        <time>2011-08-01T12:40:47.000Z</time>
      </trkpt>
      <trkpt lat="45.66228" lon="4.58541">
        <ele>564</ele>
        <time>2011-08-01T12:40:49.000Z</time>
      </trkpt>
      <trkpt lat="45.66227" lon="4.58541">
        <ele>564</ele>
        <time>2011-08-01T12:40:51.000Z</time>
      </trkpt>
      <trkpt lat="45.66227" lon="4.58541">
        <ele>564</ele>
        <time>2011-08-01T12:41:11.000Z</time>
      </trkpt>
      <trkpt lat="45.66226" lon="4.58545">
        <ele>563</ele>
        <time>2011-08-01T12:41:27.000Z</time>
      </trkpt>
      <trkpt lat="45.66226" lon="4.58545">
        <ele>562</ele>
        <time>2011-08-01T12:41:29.000Z</time>
      </trkpt>
      <trkpt lat="45.66227" lon="4.58546">
        <ele>561</ele>
        <time>2011-08-01T12:41:31.000Z</time>
      </trkpt>
      <trkpt lat="45.66228" lon="4.58547">
        <ele>560</ele>
        <time>2011-08-01T12:41:37.000Z</time>
      </trkpt>
      <trkpt lat="45.66229" lon="4.58547">
        <ele>559</ele>
        <time>2011-08-01T12:41:39.000Z</time>
      </trkpt>
      <trkpt lat="45.66229" lon="4.58547">
        <ele>559</ele>
        <time>2011-08-01T12:41:43.000Z</time>
      </trkpt>
      <trkpt lat="45.66229" lon="4.58547">
        <ele>558</ele>
        <time>2011-08-01T12:41:45.000Z</time>
      </trkpt>
      <trkpt lat="45.66229" lon="4.58547">
        <ele>557</ele>
        <time>2011-08-01T12:41:51.000Z</time>
      </trkpt>
      <trkpt lat="45.66229" lon="4.58546">
        <ele>556</ele>
        <time>2011-08-01T12:41:55.000Z</time>
      </trkpt>
      <trkpt lat="45.66229" lon="4.58546">
        <ele>556</ele>
        <time>2011-08-01T12:41:57.000Z</time>
      </trkpt>
      <trkpt lat="45.66229" lon="4.58546">
        <ele>555</ele>
        <time>2011-08-01T12:41:59.000Z</time>
      </trkpt>
      <trkpt lat="45.66229" lon="4.58546">
        <ele>555</ele>
        <time>2011-08-01T12:42:01.000Z</time>
      </trkpt>
      <trkpt lat="45.66229" lon="4.58546">
        <ele>555</ele>
        <time>2011-08-01T12:42:03.000Z</time>
      </trkpt>
      <trkpt lat="45.6623" lon="4.58546">
        <ele>554</ele>
        <time>2011-08-01T12:42:05.000Z</time>
      </trkpt>
      <trkpt lat="45.6623" lon="4.58546">
        <ele>554</ele>
        <time>2011-08-01T12:42:07.000Z</time>
      </trkpt>
      <trkpt lat="45.6623" lon="4.58545">
        <ele>553</ele>
        <time>2011-08-01T12:42:11.000Z</time>
      </trkpt>
      <trkpt lat="45.66229" lon="4.58547">
        <ele>553</ele>
        <time>2011-08-01T12:42:27.000Z</time>
      </trkpt>
      <trkpt lat="45.6623" lon="4.58547">
        <ele>552</ele>
        <time>2011-08-01T12:42:29.000Z</time>
      </trkpt>
      <trkpt lat="45.66231" lon="4.58548">
        <ele>551</ele>
        <time>2011-08-01T12:42:35.000Z</time>
      </trkpt>
      <trkpt lat="45.66225" lon="4.58548">
        <ele>551</ele>
        <time>2011-08-01T12:42:47.000Z</time>
      </trkpt>
      <trkpt lat="45.66223" lon="4.58547">
        <ele>551</ele>
        <time>2011-08-01T12:42:49.000Z</time>
      </trkpt>
      <trkpt lat="45.66221" lon="4.58545">
        <ele>551</ele>
        <time>2011-08-01T12:42:51.000Z</time>
      </trkpt>
      <trkpt lat="45.66218" lon="4.58543">
        <ele>550</ele>
        <time>2011-08-01T12:42:55.000Z</time>
      </trkpt>
      <trkpt lat="45.66212" lon="4.58539">
        <ele>551</ele>
        <time>2011-08-01T12:42:59.000Z</time>
      </trkpt>
      <trkpt lat="45.66204" lon="4.58531">
        <ele>551</ele>
        <time>2011-08-01T12:43:07.000Z</time>
      </trkpt>
      <trkpt lat="45.66197" lon="4.5852">
        <ele>552</ele>
        <time>2011-08-01T12:43:17.000Z</time>
      </trkpt>
      <trkpt lat="45.66182" lon="4.58471">
        <ele>552</ele>
        <time>2011-08-01T12:43:57.000Z</time>
      </trkpt>
      <trkpt lat="45.66182" lon="4.58471">
        <ele>552</ele>
        <time>2011-08-01T12:44:17.000Z</time>
      </trkpt>
      <trkpt lat="45.66177" lon="4.58433">
        <ele>553</ele>
        <time>2011-08-01T12:44:23.000Z</time>
      </trkpt>
      <trkpt lat="45.66161" lon="4.58435">
        <ele>553</ele>
        <time>2011-08-01T12:44:37.000Z</time>
      </trkpt>
      <trkpt lat="45.66154" lon="4.58445">
        <ele>552</ele>
        <time>2011-08-01T12:44:49.000Z</time>
      </trkpt>
      <trkpt lat="45.66147" lon="4.58468">
        <ele>552</ele>
        <time>2011-08-01T12:45:07.000Z</time>
      </trkpt>
      <trkpt lat="45.66147" lon="4.58468">
        <ele>552</ele>
        <time>2011-08-01T12:45:27.000Z</time>
      </trkpt>
      <trkpt lat="45.66128" lon="4.58497">
        <ele>552</ele>
        <time>2011-08-01T12:45:33.000Z</time>
      </trkpt>
      <trkpt lat="45.66121" lon="4.58506">
        <ele>551</ele>
        <time>2011-08-01T12:45:41.000Z</time>
      </trkpt>
      <trkpt lat="45.66119" lon="4.58509">
        <ele>551</ele>
        <time>2011-08-01T12:45:43.000Z</time>
      </trkpt>
      <trkpt lat="45.66102" lon="4.58545">
        <ele>550</ele>
        <time>2011-08-01T12:46:03.000Z</time>
      </trkpt>
      <trkpt lat="45.66102" lon="4.58545">
        <ele>550</ele>
        <time>2011-08-01T12:46:23.000Z</time>
      </trkpt>
      <trkpt lat="45.66093" lon="4.58581">
        <ele>548</ele>
        <time>2011-08-01T12:47:17.000Z</time>
      </trkpt>
      <trkpt lat="45.66093" lon="4.58581">
        <ele>548</ele>
        <time>2011-08-01T12:47:37.000Z</time>
      </trkpt>
      <trkpt lat="45.66115" lon="4.5864">
        <ele>545</ele>
        <time>2011-08-01T12:48:31.000Z</time>
      </trkpt>
      <trkpt lat="45.66115" lon="4.5864">
        <ele>545</ele>
        <time>2011-08-01T12:48:51.000Z</time>
      </trkpt>
      <trkpt lat="45.66115" lon="4.58596">
        <ele>543</ele>
        <time>2011-08-01T12:48:57.000Z</time>
      </trkpt>
      <trkpt lat="45.66117" lon="4.58591">
        <ele>542</ele>
        <time>2011-08-01T12:48:59.000Z</time>
      </trkpt>
      <trkpt lat="45.66116" lon="4.58589">
        <ele>541</ele>
        <time>2011-08-01T12:49:09.000Z</time>
      </trkpt>
      <trkpt lat="45.66116" lon="4.58591">
        <ele>540</ele>
        <time>2011-08-01T12:49:11.000Z</time>
      </trkpt>
      <trkpt lat="45.66117" lon="4.58594">
        <ele>539</ele>
        <time>2011-08-01T12:49:13.000Z</time>
      </trkpt>
      <trkpt lat="45.66117" lon="4.58595">
        <ele>538</ele>
        <time>2011-08-01T12:49:15.000Z</time>
      </trkpt>
      <trkpt lat="45.66127" lon="4.58617">
        <ele>536</ele>
        <time>2011-08-01T12:49:31.000Z</time>
      </trkpt>
      <trkpt lat="45.66128" lon="4.58618">
        <ele>535</ele>
        <time>2011-08-01T12:49:33.000Z</time>
      </trkpt>
      <trkpt lat="45.6613" lon="4.58619">
        <ele>534</ele>
        <time>2011-08-01T12:49:35.000Z</time>
      </trkpt>
      <trkpt lat="45.66131" lon="4.58619">
        <ele>533</ele>
        <time>2011-08-01T12:49:37.000Z</time>
      </trkpt>
      <trkpt lat="45.66145" lon="4.58621">
        <ele>532</ele>
        <time>2011-08-01T12:49:49.000Z</time>
      </trkpt>
      <trkpt lat="45.66147" lon="4.58622">
        <ele>531</ele>
        <time>2011-08-01T12:49:51.000Z</time>
      </trkpt>
      <trkpt lat="45.66149" lon="4.58622">
        <ele>530</ele>
        <time>2011-08-01T12:49:53.000Z</time>
      </trkpt>
      <trkpt lat="45.66153" lon="4.58622">
        <ele>529</ele>
        <time>2011-08-01T12:49:55.000Z</time>
      </trkpt>
      <trkpt lat="45.66156" lon="4.58623">
        <ele>528</ele>
        <time>2011-08-01T12:49:57.000Z</time>
      </trkpt>
      <trkpt lat="45.66157" lon="4.58623">
        <ele>527</ele>
        <time>2011-08-01T12:49:59.000Z</time>
      </trkpt>
      <trkpt lat="45.66157" lon="4.58623">
        <ele>527</ele>
        <time>2011-08-01T12:50:19.000Z</time>
      </trkpt>
      <trkpt lat="45.66185" lon="4.58625">
        <ele>525</ele>
        <time>2011-08-01T12:50:21.000Z</time>
      </trkpt>
      <trkpt lat="45.66193" lon="4.58627">
        <ele>524</ele>
        <time>2011-08-01T12:50:27.000Z</time>
      </trkpt>
      <trkpt lat="45.66194" lon="4.58627">
        <ele>523</ele>
        <time>2011-08-01T12:50:29.000Z</time>
      </trkpt>
      <trkpt lat="45.66211" lon="4.58638">
        <ele>522</ele>
        <time>2011-08-01T12:50:43.000Z</time>
      </trkpt>
      <trkpt lat="45.66211" lon="4.58638">
        <ele>521</ele>
        <time>2011-08-01T12:50:45.000Z</time>
      </trkpt>
      <trkpt lat="45.66215" lon="4.58641">
        <ele>520</ele>
        <time>2011-08-01T12:50:47.000Z</time>
      </trkpt>
      <trkpt lat="45.66217" lon="4.58643">
        <ele>519</ele>
        <time>2011-08-01T12:50:49.000Z</time>
      </trkpt>
      <trkpt lat="45.66219" lon="4.58645">
        <ele>518</ele>
        <time>2011-08-01T12:50:51.000Z</time>
      </trkpt>
      <trkpt lat="45.6623" lon="4.58656">
        <ele>517</ele>
        <time>2011-08-01T12:50:57.000Z</time>
      </trkpt>
      <trkpt lat="45.66235" lon="4.58663">
        <ele>516</ele>
        <time>2011-08-01T12:50:59.000Z</time>
      </trkpt>
      <trkpt lat="45.66239" lon="4.58667">
        <ele>515</ele>
        <time>2011-08-01T12:51:01.000Z</time>
      </trkpt>
      <trkpt lat="45.66243" lon="4.58671">
        <ele>514</ele>
        <time>2011-08-01T12:51:03.000Z</time>
      </trkpt>
      <trkpt lat="45.66246" lon="4.58676">
        <ele>513</ele>
        <time>2011-08-01T12:51:05.000Z</time>
      </trkpt>
      <trkpt lat="45.66248" lon="4.58677">
        <ele>513</ele>
        <time>2011-08-01T12:51:07.000Z</time>
      </trkpt>
      <trkpt lat="45.66256" lon="4.58686">
        <ele>511</ele>
        <time>2011-08-01T12:51:11.000Z</time>
      </trkpt>
      <trkpt lat="45.66259" lon="4.5869">
        <ele>510</ele>
        <time>2011-08-01T12:51:16.000Z</time>
      </trkpt>
      <trkpt lat="45.66261" lon="4.58693">
        <ele>509</ele>
        <time>2011-08-01T12:51:17.000Z</time>
      </trkpt>
      <trkpt lat="45.66261" lon="4.58693">
        <ele>508</ele>
        <time>2011-08-01T12:51:19.000Z</time>
      </trkpt>
      <trkpt lat="45.66264" lon="4.58692">
        <ele>507</ele>
        <time>2011-08-01T12:51:25.000Z</time>
      </trkpt>
      <trkpt lat="45.66264" lon="4.58691">
        <ele>506</ele>
        <time>2011-08-01T12:51:27.000Z</time>
      </trkpt>
      <trkpt lat="45.66266" lon="4.58693">
        <ele>505</ele>
        <time>2011-08-01T12:51:29.000Z</time>
      </trkpt>
      <trkpt lat="45.66267" lon="4.58694">
        <ele>504</ele>
        <time>2011-08-01T12:51:31.000Z</time>
      </trkpt>
      <trkpt lat="45.66267" lon="4.58694">
        <ele>503</ele>
        <time>2011-08-01T12:51:33.000Z</time>
      </trkpt>
      <trkpt lat="45.66266" lon="4.58694">
        <ele>502</ele>
        <time>2011-08-01T12:51:35.000Z</time>
      </trkpt>
      <trkpt lat="45.66265" lon="4.58695">
        <ele>501</ele>
        <time>2011-08-01T12:51:41.000Z</time>
      </trkpt>
      <trkpt lat="45.66264" lon="4.58695">
        <ele>500</ele>
        <time>2011-08-01T12:51:46.000Z</time>
      </trkpt>
      <trkpt lat="45.66262" lon="4.58695">
        <ele>499</ele>
        <time>2011-08-01T12:51:51.000Z</time>
      </trkpt>
      <trkpt lat="45.66261" lon="4.58695">
        <ele>499</ele>
        <time>2011-08-01T12:51:55.000Z</time>
      </trkpt>
      <trkpt lat="45.66261" lon="4.58696">
        <ele>498</ele>
        <time>2011-08-01T12:51:57.000Z</time>
      </trkpt>
      <trkpt lat="45.66261" lon="4.58696">
        <ele>498</ele>
        <time>2011-08-01T12:51:59.000Z</time>
      </trkpt>
      <trkpt lat="45.6626" lon="4.58696">
        <ele>497</ele>
        <time>2011-08-01T12:52:01.000Z</time>
      </trkpt>
      <trkpt lat="45.6626" lon="4.58697">
        <ele>497</ele>
        <time>2011-08-01T12:52:03.000Z</time>
      </trkpt>
      <trkpt lat="45.6626" lon="4.58697">
        <ele>496</ele>
        <time>2011-08-01T12:52:05.000Z</time>
      </trkpt>
      <trkpt lat="45.66259" lon="4.58697">
        <ele>496</ele>
        <time>2011-08-01T12:52:07.000Z</time>
      </trkpt>
      <trkpt lat="45.66259" lon="4.58692">
        <ele>495</ele>
        <time>2011-08-01T12:52:11.000Z</time>
      </trkpt>
      <trkpt lat="45.6626" lon="4.58685">
        <ele>494</ele>
        <time>2011-08-01T12:52:15.000Z</time>
      </trkpt>
      <trkpt lat="45.66259" lon="4.58682">
        <ele>493</ele>
        <time>2011-08-01T12:52:17.000Z</time>
      </trkpt>
      <trkpt lat="45.66259" lon="4.58682">
        <ele>493</ele>
        <time>2011-08-01T12:52:37.000Z</time>
      </trkpt>
      <trkpt lat="45.66257" lon="4.58682">
        <ele>491</ele>
        <time>2011-08-01T12:52:45.000Z</time>
      </trkpt>
      <trkpt lat="45.66257" lon="4.58682">
        <ele>490</ele>
        <time>2011-08-01T12:52:47.000Z</time>
      </trkpt>
      <trkpt lat="45.66258" lon="4.58689">
        <ele>489</ele>
        <time>2011-08-01T12:52:55.000Z</time>
      </trkpt>
      <trkpt lat="45.6626" lon="4.58691">
        <ele>489</ele>
        <time>2011-08-01T12:52:57.000Z</time>
      </trkpt>
      <trkpt lat="45.66269" lon="4.58695">
        <ele>488</ele>
        <time>2011-08-01T12:53:05.000Z</time>
      </trkpt>
      <trkpt lat="45.66277" lon="4.58698">
        <ele>487</ele>
        <time>2011-08-01T12:53:09.000Z</time>
      </trkpt>
      <trkpt lat="45.66285" lon="4.58701">
        <ele>486</ele>
        <time>2011-08-01T12:53:13.000Z</time>
      </trkpt>
      <trkpt lat="45.66307" lon="4.58714">
        <ele>485</ele>
        <time>2011-08-01T12:53:31.000Z</time>
      </trkpt>
      <trkpt lat="45.66309" lon="4.58716">
        <ele>485</ele>
        <time>2011-08-01T12:53:33.000Z</time>
      </trkpt>
      <trkpt lat="45.66318" lon="4.58729">
        <ele>484</ele>
        <time>2011-08-01T12:53:43.000Z</time>
      </trkpt>
      <trkpt lat="45.66319" lon="4.58732">
        <ele>483</ele>
        <time>2011-08-01T12:53:45.000Z</time>
      </trkpt>
      <trkpt lat="45.66321" lon="4.58735">
        <ele>483</ele>
        <time>2011-08-01T12:53:47.000Z</time>
      </trkpt>
      <trkpt lat="45.66323" lon="4.58738">
        <ele>482</ele>
        <time>2011-08-01T12:53:49.000Z</time>
      </trkpt>
      <trkpt lat="45.6633" lon="4.58744">
        <ele>481</ele>
        <time>2011-08-01T12:53:55.000Z</time>
      </trkpt>
      <trkpt lat="45.66332" lon="4.58745">
        <ele>481</ele>
        <time>2011-08-01T12:53:57.000Z</time>
      </trkpt>
      <trkpt lat="45.66333" lon="4.58746">
        <ele>480</ele>
        <time>2011-08-01T12:53:59.000Z</time>
      </trkpt>
      <trkpt lat="45.66464" lon="4.58673">
        <ele>436</ele>
        <time>2011-08-01T12:54:11.000Z</time>
      </trkpt>
      <trkpt lat="45.66367" lon="4.58706">
        <ele>466</ele>
        <time>2011-08-01T12:54:19.000Z</time>
      </trkpt>
      <trkpt lat="45.66367" lon="4.58706">
        <ele>466</ele>
        <time>2011-08-01T12:54:39.000Z</time>
      </trkpt>
      <trkpt lat="45.66346" lon="4.58719">
        <ele>458</ele>
        <time>2011-08-01T12:54:43.000Z</time>
      </trkpt>
      <trkpt lat="45.66345" lon="4.58719">
        <ele>455</ele>
        <time>2011-08-01T12:54:45.000Z</time>
      </trkpt>
      <trkpt lat="45.66345" lon="4.58719">
        <ele>455</ele>
        <time>2011-08-01T12:55:05.000Z</time>
      </trkpt>
      <trkpt lat="45.66331" lon="4.58703">
        <ele>455</ele>
        <time>2011-08-01T12:55:07.000Z</time>
      </trkpt>
      <trkpt lat="45.6633" lon="4.58702">
        <ele>452</ele>
        <time>2011-08-01T12:55:09.000Z</time>
      </trkpt>
      <trkpt lat="45.66328" lon="4.58699">
        <ele>450</ele>
        <time>2011-08-01T12:55:11.000Z</time>
      </trkpt>
      <trkpt lat="45.66327" lon="4.58699">
        <ele>449</ele>
        <time>2011-08-01T12:55:13.000Z</time>
      </trkpt>
      <trkpt lat="45.66325" lon="4.58697">
        <ele>448</ele>
        <time>2011-08-01T12:55:15.000Z</time>
      </trkpt>
      <trkpt lat="45.66317" lon="4.5869">
        <ele>447</ele>
        <time>2011-08-01T12:55:21.000Z</time>
      </trkpt>
      <trkpt lat="45.66312" lon="4.58685">
        <ele>445</ele>
        <time>2011-08-01T12:55:25.000Z</time>
      </trkpt>
      <trkpt lat="45.6631" lon="4.58683">
        <ele>444</ele>
        <time>2011-08-01T12:55:27.000Z</time>
      </trkpt>
      <trkpt lat="45.66308" lon="4.58681">
        <ele>443</ele>
        <time>2011-08-01T12:55:29.000Z</time>
      </trkpt>
      <trkpt lat="45.66307" lon="4.5868">
        <ele>442</ele>
        <time>2011-08-01T12:55:31.000Z</time>
      </trkpt>
      <trkpt lat="45.66304" lon="4.58678">
        <ele>441</ele>
        <time>2011-08-01T12:55:33.000Z</time>
      </trkpt>
      <trkpt lat="45.66301" lon="4.58675">
        <ele>440</ele>
        <time>2011-08-01T12:55:35.000Z</time>
      </trkpt>
      <trkpt lat="45.66299" lon="4.58674">
        <ele>439</ele>
        <time>2011-08-01T12:55:37.000Z</time>
      </trkpt>
      <trkpt lat="45.66296" lon="4.58671">
        <ele>438</ele>
        <time>2011-08-01T12:55:41.000Z</time>
      </trkpt>
      <trkpt lat="45.66291" lon="4.58667">
        <ele>437</ele>
        <time>2011-08-01T12:55:43.000Z</time>
      </trkpt>
      <trkpt lat="45.66285" lon="4.58661">
        <ele>436</ele>
        <time>2011-08-01T12:55:47.000Z</time>
      </trkpt>
      <trkpt lat="45.6628" lon="4.58658">
        <ele>436</ele>
        <time>2011-08-01T12:55:51.000Z</time>
      </trkpt>
      <trkpt lat="45.66278" lon="4.58657">
        <ele>435</ele>
        <time>2011-08-01T12:55:53.000Z</time>
      </trkpt>
      <trkpt lat="45.66273" lon="4.58653">
        <ele>434</ele>
        <time>2011-08-01T12:55:57.000Z</time>
      </trkpt>
      <trkpt lat="45.6627" lon="4.58652">
        <ele>434</ele>
        <time>2011-08-01T12:55:59.000Z</time>
      </trkpt>
      <trkpt lat="45.66266" lon="4.58647">
        <ele>433</ele>
        <time>2011-08-01T12:56:03.000Z</time>
      </trkpt>
      <trkpt lat="45.66261" lon="4.58641">
        <ele>432</ele>
        <time>2011-08-01T12:56:09.000Z</time>
      </trkpt>
      <trkpt lat="45.66259" lon="4.5864">
        <ele>432</ele>
        <time>2011-08-01T12:56:11.000Z</time>
      </trkpt>
      <trkpt lat="45.66258" lon="4.58638">
        <ele>432</ele>
        <time>2011-08-01T12:56:13.000Z</time>
      </trkpt>
      <trkpt lat="45.66256" lon="4.58636">
        <ele>431</ele>
        <time>2011-08-01T12:56:17.000Z</time>
      </trkpt>
      <trkpt lat="45.66252" lon="4.58631">
        <ele>431</ele>
        <time>2011-08-01T12:56:23.000Z</time>
      </trkpt>
      <trkpt lat="45.6623" lon="4.58609">
        <ele>431</ele>
        <time>2011-08-01T12:56:43.000Z</time>
      </trkpt>
      <trkpt lat="45.66228" lon="4.58608">
        <ele>431</ele>
        <time>2011-08-01T12:56:45.000Z</time>
      </trkpt>
      <trkpt lat="45.66195" lon="4.58593">
        <ele>431</ele>
        <time>2011-08-01T12:57:15.000Z</time>
      </trkpt>
      <trkpt lat="45.66195" lon="4.58593">
        <ele>431</ele>
        <time>2011-08-01T12:57:35.000Z</time>
      </trkpt>
      <trkpt lat="45.66165" lon="4.58586">
        <ele>431</ele>
        <time>2011-08-01T12:57:39.000Z</time>
      </trkpt>
      <trkpt lat="45.66161" lon="4.58584">
        <ele>431</ele>
        <time>2011-08-01T12:57:41.000Z</time>
      </trkpt>
      <trkpt lat="45.66154" lon="4.58577">
        <ele>431</ele>
        <time>2011-08-01T12:57:47.000Z</time>
      </trkpt>
      <trkpt lat="45.66154" lon="4.58577">
        <ele>431</ele>
        <time>2011-08-01T12:58:07.000Z</time>
      </trkpt>
      <trkpt lat="45.66127" lon="4.58566">
        <ele>430</ele>
        <time>2011-08-01T12:58:23.000Z</time>
      </trkpt>
      <trkpt lat="45.66127" lon="4.58566">
        <ele>430</ele>
        <time>2011-08-01T12:58:43.000Z</time>
      </trkpt>
      <trkpt lat="45.6612" lon="4.58603">
        <ele>430</ele>
        <time>2011-08-01T12:58:55.000Z</time>
      </trkpt>
      <trkpt lat="45.66121" lon="4.58642">
        <ele>430</ele>
        <time>2011-08-01T12:59:15.000Z</time>
      </trkpt>
      <trkpt lat="45.66112" lon="4.58664">
        <ele>430</ele>
        <time>2011-08-01T12:59:45.000Z</time>
      </trkpt>
      <trkpt lat="45.6611" lon="4.58666">
        <ele>430</ele>
        <time>2011-08-01T12:59:47.000Z</time>
      </trkpt>
      <trkpt lat="45.661" lon="4.58674">
        <ele>431</ele>
        <time>2011-08-01T12:59:59.000Z</time>
      </trkpt>
      <trkpt lat="45.6609" lon="4.58684">
        <ele>432</ele>
        <time>2011-08-01T13:00:13.000Z</time>
      </trkpt>
      <trkpt lat="45.66089" lon="4.58686">
        <ele>432</ele>
        <time>2011-08-01T13:00:15.000Z</time>
      </trkpt>
      <trkpt lat="45.66082" lon="4.58698">
        <ele>432</ele>
        <time>2011-08-01T13:00:23.000Z</time>
      </trkpt>
      <trkpt lat="45.66081" lon="4.58699">
        <ele>432</ele>
        <time>2011-08-01T13:00:25.000Z</time>
      </trkpt>
      <trkpt lat="45.6608" lon="4.58701">
        <ele>432</ele>
        <time>2011-08-01T13:00:27.000Z</time>
      </trkpt>
      <trkpt lat="45.66079" lon="4.58703">
        <ele>433</ele>
        <time>2011-08-01T13:00:29.000Z</time>
      </trkpt>
      <trkpt lat="45.66073" lon="4.58718">
        <ele>434</ele>
        <time>2011-08-01T13:00:41.000Z</time>
      </trkpt>
      <trkpt lat="45.66074" lon="4.58719">
        <ele>434</ele>
        <time>2011-08-01T13:00:43.000Z</time>
      </trkpt>
      <trkpt lat="45.66081" lon="4.58723">
        <ele>434</ele>
        <time>2011-08-01T13:01:01.000Z</time>
      </trkpt>
      <trkpt lat="45.66083" lon="4.58723">
        <ele>434</ele>
        <time>2011-08-01T13:01:03.000Z</time>
      </trkpt>
      <trkpt lat="45.66084" lon="4.58723">
        <ele>435</ele>
        <time>2011-08-01T13:01:05.000Z</time>
      </trkpt>
      <trkpt lat="45.66105" lon="4.58723">
        <ele>435</ele>
        <time>2011-08-01T13:01:23.000Z</time>
      </trkpt>
      <trkpt lat="45.6611" lon="4.58722">
        <ele>436</ele>
        <time>2011-08-01T13:01:29.000Z</time>
      </trkpt>
      <trkpt lat="45.66125" lon="4.5872">
        <ele>437</ele>
        <time>2011-08-01T13:01:43.000Z</time>
      </trkpt>
      <trkpt lat="45.66126" lon="4.5872">
        <ele>437</ele>
        <time>2011-08-01T13:01:45.000Z</time>
      </trkpt>
      <trkpt lat="45.66127" lon="4.5872">
        <ele>437</ele>
        <time>2011-08-01T13:01:47.000Z</time>
      </trkpt>
      <trkpt lat="45.66128" lon="4.5872">
        <ele>437</ele>
        <time>2011-08-01T13:01:49.000Z</time>
      </trkpt>
      <trkpt lat="45.66131" lon="4.58724">
        <ele>438</ele>
        <time>2011-08-01T13:01:55.000Z</time>
      </trkpt>
      <trkpt lat="45.66133" lon="4.58726">
        <ele>438</ele>
        <time>2011-08-01T13:01:59.000Z</time>
      </trkpt>
      <trkpt lat="45.66146" lon="4.58746">
        <ele>439</ele>
        <time>2011-08-01T13:02:19.000Z</time>
      </trkpt>
      <trkpt lat="45.66158" lon="4.5877">
        <ele>440</ele>
        <time>2011-08-01T13:02:45.000Z</time>
      </trkpt>
      <trkpt lat="45.66171" lon="4.58788">
        <ele>441</ele>
        <time>2011-08-01T13:03:05.000Z</time>
      </trkpt>
      <trkpt lat="45.6618" lon="4.58798">
        <ele>442</ele>
        <time>2011-08-01T13:03:17.000Z</time>
      </trkpt>
      <trkpt lat="45.66183" lon="4.58802">
        <ele>443</ele>
        <time>2011-08-01T13:03:23.000Z</time>
      </trkpt>
      <trkpt lat="45.66183" lon="4.58802">
        <ele>443</ele>
        <time>2011-08-01T13:03:43.000Z</time>
      </trkpt>
      <trkpt lat="45.66187" lon="4.5881">
        <ele>444</ele>
        <time>2011-08-01T13:03:49.000Z</time>
      </trkpt>
      <trkpt lat="45.66186" lon="4.5881">
        <ele>444</ele>
        <time>2011-08-01T13:03:51.000Z</time>
      </trkpt>
      <trkpt lat="45.66186" lon="4.5881">
        <ele>444</ele>
        <time>2011-08-01T13:04:11.000Z</time>
      </trkpt>
      <trkpt lat="45.66159" lon="4.58811">
        <ele>466</ele>
        <time>2011-08-01T13:04:15.000Z</time>
      </trkpt>
      <trkpt lat="45.66151" lon="4.58813">
        <ele>471</ele>
        <time>2011-08-01T13:04:23.000Z</time>
      </trkpt>
      <trkpt lat="45.66149" lon="4.58813">
        <ele>475</ele>
        <time>2011-08-01T13:04:25.000Z</time>
      </trkpt>
      <trkpt lat="45.66146" lon="4.58814">
        <ele>480</ele>
        <time>2011-08-01T13:04:27.000Z</time>
      </trkpt>
      <trkpt lat="45.66142" lon="4.58815">
        <ele>487</ele>
        <time>2011-08-01T13:04:31.000Z</time>
      </trkpt>
      <trkpt lat="45.6614" lon="4.58815">
        <ele>489</ele>
        <time>2011-08-01T13:04:33.000Z</time>
      </trkpt>
      <trkpt lat="45.66138" lon="4.58816">
        <ele>494</ele>
        <time>2011-08-01T13:04:35.000Z</time>
      </trkpt>
      <trkpt lat="45.66137" lon="4.58817">
        <ele>497</ele>
        <time>2011-08-01T13:04:37.000Z</time>
      </trkpt>
      <trkpt lat="45.66137" lon="4.58818">
        <ele>501</ele>
        <time>2011-08-01T13:04:39.000Z</time>
      </trkpt>
      <trkpt lat="45.66134" lon="4.58819">
        <ele>504</ele>
        <time>2011-08-01T13:04:41.000Z</time>
      </trkpt>
      <trkpt lat="45.66132" lon="4.5882">
        <ele>507</ele>
        <time>2011-08-01T13:04:43.000Z</time>
      </trkpt>
      <trkpt lat="45.6613" lon="4.58821">
        <ele>510</ele>
        <time>2011-08-01T13:04:45.000Z</time>
      </trkpt>
      <trkpt lat="45.66129" lon="4.58822">
        <ele>513</ele>
        <time>2011-08-01T13:04:47.000Z</time>
      </trkpt>
      <trkpt lat="45.66128" lon="4.58823">
        <ele>515</ele>
        <time>2011-08-01T13:04:49.000Z</time>
      </trkpt>
      <trkpt lat="45.66126" lon="4.58824">
        <ele>518</ele>
        <time>2011-08-01T13:04:51.000Z</time>
      </trkpt>
      <trkpt lat="45.66124" lon="4.58826">
        <ele>520</ele>
        <time>2011-08-01T13:04:53.000Z</time>
      </trkpt>
      <trkpt lat="45.66123" lon="4.58828">
        <ele>522</ele>
        <time>2011-08-01T13:04:55.000Z</time>
      </trkpt>
      <trkpt lat="45.66121" lon="4.58829">
        <ele>524</ele>
        <time>2011-08-01T13:04:57.000Z</time>
      </trkpt>
      <trkpt lat="45.66121" lon="4.5883">
        <ele>526</ele>
        <time>2011-08-01T13:04:59.000Z</time>
      </trkpt>
      <trkpt lat="45.66119" lon="4.58831">
        <ele>528</ele>
        <time>2011-08-01T13:05:01.000Z</time>
      </trkpt>
      <trkpt lat="45.66119" lon="4.58831">
        <ele>529</ele>
        <time>2011-08-01T13:05:03.000Z</time>
      </trkpt>
      <trkpt lat="45.66116" lon="4.58833">
        <ele>531</ele>
        <time>2011-08-01T13:05:05.000Z</time>
      </trkpt>
      <trkpt lat="45.66108" lon="4.58838">
        <ele>535</ele>
        <time>2011-08-01T13:05:15.000Z</time>
      </trkpt>
      <trkpt lat="45.66105" lon="4.58841">
        <ele>536</ele>
        <time>2011-08-01T13:05:17.000Z</time>
      </trkpt>
      <trkpt lat="45.66098" lon="4.58851">
        <ele>539</ele>
        <time>2011-08-01T13:05:27.000Z</time>
      </trkpt>
      <trkpt lat="45.66095" lon="4.58863">
        <ele>541</ele>
        <time>2011-08-01T13:05:37.000Z</time>
      </trkpt>
      <trkpt lat="45.66094" lon="4.58868">
        <ele>543</ele>
        <time>2011-08-01T13:05:39.000Z</time>
      </trkpt>
      <trkpt lat="45.66094" lon="4.58869">
        <ele>545</ele>
        <time>2011-08-01T13:05:41.000Z</time>
      </trkpt>
      <trkpt lat="45.66094" lon="4.58872">
        <ele>547</ele>
        <time>2011-08-01T13:05:43.000Z</time>
      </trkpt>
      <trkpt lat="45.66095" lon="4.58876">
        <ele>549</ele>
        <time>2011-08-01T13:05:49.000Z</time>
      </trkpt>
      <trkpt lat="45.66095" lon="4.58877">
        <ele>550</ele>
        <time>2011-08-01T13:05:51.000Z</time>
      </trkpt>
      <trkpt lat="45.66097" lon="4.58878">
        <ele>552</ele>
        <time>2011-08-01T13:05:53.000Z</time>
      </trkpt>
      <trkpt lat="45.66097" lon="4.58878">
        <ele>553</ele>
        <time>2011-08-01T13:05:55.000Z</time>
      </trkpt>
      <trkpt lat="45.66105" lon="4.58885">
        <ele>555</ele>
        <time>2011-08-01T13:06:07.000Z</time>
      </trkpt>
      <trkpt lat="45.66106" lon="4.58885">
        <ele>556</ele>
        <time>2011-08-01T13:06:10.000Z</time>
      </trkpt>
      <trkpt lat="45.66106" lon="4.58885">
        <ele>557</ele>
        <time>2011-08-01T13:06:12.000Z</time>
      </trkpt>
      <trkpt lat="45.66106" lon="4.58886">
        <ele>559</ele>
        <time>2011-08-01T13:06:13.000Z</time>
      </trkpt>
      <trkpt lat="45.66103" lon="4.58887">
        <ele>560</ele>
        <time>2011-08-01T13:06:19.000Z</time>
      </trkpt>
      <trkpt lat="45.66102" lon="4.5889">
        <ele>563</ele>
        <time>2011-08-01T13:06:41.000Z</time>
      </trkpt>
      <trkpt lat="45.66102" lon="4.5889">
        <ele>564</ele>
        <time>2011-08-01T13:06:43.000Z</time>
      </trkpt>
      <trkpt lat="45.66107" lon="4.58896">
        <ele>564</ele>
        <time>2011-08-01T13:07:07.000Z</time>
      </trkpt>
      <trkpt lat="45.66107" lon="4.58897">
        <ele>565</ele>
        <time>2011-08-01T13:07:09.000Z</time>
      </trkpt>
      <trkpt lat="45.66109" lon="4.58899">
        <ele>566</ele>
        <time>2011-08-01T13:07:11.000Z</time>
      </trkpt>
      <trkpt lat="45.66112" lon="4.58903">
        <ele>567</ele>
        <time>2011-08-01T13:07:15.000Z</time>
      </trkpt>
      <trkpt lat="45.66113" lon="4.58905">
        <ele>567</ele>
        <time>2011-08-01T13:07:17.000Z</time>
      </trkpt>
      <trkpt lat="45.66116" lon="4.58909">
        <ele>568</ele>
        <time>2011-08-01T13:07:19.000Z</time>
      </trkpt>
      <trkpt lat="45.66117" lon="4.58914">
        <ele>569</ele>
        <time>2011-08-01T13:07:23.000Z</time>
      </trkpt>
      <trkpt lat="45.6612" lon="4.58927">
        <ele>570</ele>
        <time>2011-08-01T13:07:33.000Z</time>
      </trkpt>
      <trkpt lat="45.6612" lon="4.58931">
        <ele>570</ele>
        <time>2011-08-01T13:07:35.000Z</time>
      </trkpt>
      <trkpt lat="45.66119" lon="4.58934">
        <ele>571</ele>
        <time>2011-08-01T13:07:37.000Z</time>
      </trkpt>
      <trkpt lat="45.66117" lon="4.58941">
        <ele>572</ele>
        <time>2011-08-01T13:07:41.000Z</time>
      </trkpt>
      <trkpt lat="45.66115" lon="4.58944">
        <ele>572</ele>
        <time>2011-08-01T13:07:45.000Z</time>
      </trkpt>
      <trkpt lat="45.66114" lon="4.58946">
        <ele>572</ele>
        <time>2011-08-01T13:07:47.000Z</time>
      </trkpt>
      <trkpt lat="45.6611" lon="4.58957">
        <ele>573</ele>
        <time>2011-08-01T13:07:53.000Z</time>
      </trkpt>
      <trkpt lat="45.66109" lon="4.58959">
        <ele>574</ele>
        <time>2011-08-01T13:07:55.000Z</time>
      </trkpt>
      <trkpt lat="45.66107" lon="4.58969">
        <ele>575</ele>
        <time>2011-08-01T13:08:01.000Z</time>
      </trkpt>
      <trkpt lat="45.66106" lon="4.58972">
        <ele>576</ele>
        <time>2011-08-01T13:08:03.000Z</time>
      </trkpt>
      <trkpt lat="45.66101" lon="4.5899">
        <ele>577</ele>
        <time>2011-08-01T13:08:17.000Z</time>
      </trkpt>
      <trkpt lat="45.66097" lon="4.58998">
        <ele>578</ele>
        <time>2011-08-01T13:08:23.000Z</time>
      </trkpt>
      <trkpt lat="45.66094" lon="4.59002">
        <ele>578</ele>
        <time>2011-08-01T13:08:27.000Z</time>
      </trkpt>
      <trkpt lat="45.66092" lon="4.59004">
        <ele>579</ele>
        <time>2011-08-01T13:08:29.000Z</time>
      </trkpt>
      <trkpt lat="45.66082" lon="4.59016">
        <ele>580</ele>
        <time>2011-08-01T13:08:39.000Z</time>
      </trkpt>
      <trkpt lat="45.66074" lon="4.59028">
        <ele>581</ele>
        <time>2011-08-01T13:08:49.000Z</time>
      </trkpt>
      <trkpt lat="45.66072" lon="4.59031">
        <ele>582</ele>
        <time>2011-08-01T13:08:51.000Z</time>
      </trkpt>
      <trkpt lat="45.66061" lon="4.59047">
        <ele>583</ele>
        <time>2011-08-01T13:09:01.000Z</time>
      </trkpt>
      <trkpt lat="45.66061" lon="4.59048">
        <ele>584</ele>
        <time>2011-08-01T13:09:03.000Z</time>
      </trkpt>
      <trkpt lat="45.66051" lon="4.5906">
        <ele>585</ele>
        <time>2011-08-01T13:09:13.000Z</time>
      </trkpt>
      <trkpt lat="45.6605" lon="4.59061">
        <ele>585</ele>
        <time>2011-08-01T13:09:15.000Z</time>
      </trkpt>
      <trkpt lat="45.66049" lon="4.59063">
        <ele>586</ele>
        <time>2011-08-01T13:09:17.000Z</time>
      </trkpt>
      <trkpt lat="45.66047" lon="4.59066">
        <ele>586</ele>
        <time>2011-08-01T13:09:19.000Z</time>
      </trkpt>
      <trkpt lat="45.66043" lon="4.59072">
        <ele>587</ele>
        <time>2011-08-01T13:09:23.000Z</time>
      </trkpt>
      <trkpt lat="45.66039" lon="4.5908">
        <ele>588</ele>
        <time>2011-08-01T13:09:29.000Z</time>
      </trkpt>
      <trkpt lat="45.66031" lon="4.59094">
        <ele>589</ele>
        <time>2011-08-01T13:09:41.000Z</time>
      </trkpt>
      <trkpt lat="45.66025" lon="4.59108">
        <ele>590</ele>
        <time>2011-08-01T13:09:59.000Z</time>
      </trkpt>
      <trkpt lat="45.66021" lon="4.59115">
        <ele>590</ele>
        <time>2011-08-01T13:10:05.000Z</time>
      </trkpt>
      <trkpt lat="45.6602" lon="4.59117">
        <ele>590</ele>
        <time>2011-08-01T13:10:07.000Z</time>
      </trkpt>
      <trkpt lat="45.66011" lon="4.59137">
        <ele>591</ele>
        <time>2011-08-01T13:10:17.000Z</time>
      </trkpt>
      <trkpt lat="45.66007" lon="4.59149">
        <ele>592</ele>
        <time>2011-08-01T13:10:23.000Z</time>
      </trkpt>
      <trkpt lat="45.66005" lon="4.59154">
        <ele>593</ele>
        <time>2011-08-01T13:10:27.000Z</time>
      </trkpt>
      <trkpt lat="45.66" lon="4.59171">
        <ele>594</ele>
        <time>2011-08-01T13:10:37.000Z</time>
      </trkpt>
      <trkpt lat="45.65998" lon="4.5918">
        <ele>595</ele>
        <time>2011-08-01T13:10:43.000Z</time>
      </trkpt>
      <trkpt lat="45.65997" lon="4.59183">
        <ele>595</ele>
        <time>2011-08-01T13:10:45.000Z</time>
      </trkpt>
      <trkpt lat="45.65996" lon="4.59186">
        <ele>596</ele>
        <time>2011-08-01T13:10:47.000Z</time>
      </trkpt>
      <trkpt lat="45.65994" lon="4.59189">
        <ele>597</ele>
        <time>2011-08-01T13:10:51.000Z</time>
      </trkpt>
      <trkpt lat="45.65989" lon="4.59198">
        <ele>598</ele>
        <time>2011-08-01T13:10:59.000Z</time>
      </trkpt>
      <trkpt lat="45.65985" lon="4.59204">
        <ele>600</ele>
        <time>2011-08-01T13:11:05.000Z</time>
      </trkpt>
      <trkpt lat="45.65983" lon="4.59209">
        <ele>601</ele>
        <time>2011-08-01T13:11:09.000Z</time>
      </trkpt>
      <trkpt lat="45.65982" lon="4.5921">
        <ele>601</ele>
        <time>2011-08-01T13:11:11.000Z</time>
      </trkpt>
      <trkpt lat="45.65979" lon="4.59217">
        <ele>602</ele>
        <time>2011-08-01T13:11:15.000Z</time>
      </trkpt>
      <trkpt lat="45.65979" lon="4.59219">
        <ele>603</ele>
        <time>2011-08-01T13:11:17.000Z</time>
      </trkpt>
      <trkpt lat="45.65978" lon="4.5922">
        <ele>603</ele>
        <time>2011-08-01T13:11:19.000Z</time>
      </trkpt>
      <trkpt lat="45.65977" lon="4.59223">
        <ele>604</ele>
        <time>2011-08-01T13:11:21.000Z</time>
      </trkpt>
      <trkpt lat="45.65973" lon="4.59229">
        <ele>605</ele>
        <time>2011-08-01T13:11:27.000Z</time>
      </trkpt>
      <trkpt lat="45.65972" lon="4.59229">
        <ele>605</ele>
        <time>2011-08-01T13:11:29.000Z</time>
      </trkpt>
      <trkpt lat="45.6597" lon="4.59232">
        <ele>606</ele>
        <time>2011-08-01T13:11:31.000Z</time>
      </trkpt>
      <trkpt lat="45.6597" lon="4.59233">
        <ele>606</ele>
        <time>2011-08-01T13:11:33.000Z</time>
      </trkpt>
      <trkpt lat="45.65965" lon="4.5924">
        <ele>607</ele>
        <time>2011-08-01T13:11:39.000Z</time>
      </trkpt>
      <trkpt lat="45.65963" lon="4.59245">
        <ele>608</ele>
        <time>2011-08-01T13:11:43.000Z</time>
      </trkpt>
      <trkpt lat="45.65961" lon="4.59248">
        <ele>609</ele>
        <time>2011-08-01T13:11:45.000Z</time>
      </trkpt>
      <trkpt lat="45.6596" lon="4.59252">
        <ele>610</ele>
        <time>2011-08-01T13:11:49.000Z</time>
      </trkpt>
      <trkpt lat="45.65957" lon="4.59258">
        <ele>611</ele>
        <time>2011-08-01T13:11:53.000Z</time>
      </trkpt>
      <trkpt lat="45.65953" lon="4.59264">
        <ele>612</ele>
        <time>2011-08-01T13:11:57.000Z</time>
      </trkpt>
      <trkpt lat="45.65949" lon="4.59269">
        <ele>613</ele>
        <time>2011-08-01T13:12:01.000Z</time>
      </trkpt>
      <trkpt lat="45.65946" lon="4.59275">
        <ele>614</ele>
        <time>2011-08-01T13:12:05.000Z</time>
      </trkpt>
      <trkpt lat="45.6594" lon="4.59286">
        <ele>615</ele>
        <time>2011-08-01T13:12:13.000Z</time>
      </trkpt>
      <trkpt lat="45.65939" lon="4.59289">
        <ele>616</ele>
        <time>2011-08-01T13:12:15.000Z</time>
      </trkpt>
      <trkpt lat="45.65937" lon="4.59292">
        <ele>616</ele>
        <time>2011-08-01T13:12:17.000Z</time>
      </trkpt>
      <trkpt lat="45.65936" lon="4.59293">
        <ele>617</ele>
        <time>2011-08-01T13:12:19.000Z</time>
      </trkpt>
      <trkpt lat="45.65931" lon="4.59302">
        <ele>618</ele>
        <time>2011-08-01T13:12:25.000Z</time>
      </trkpt>
      <trkpt lat="45.65929" lon="4.59305">
        <ele>619</ele>
        <time>2011-08-01T13:12:27.000Z</time>
      </trkpt>
      <trkpt lat="45.65926" lon="4.59311">
        <ele>620</ele>
        <time>2011-08-01T13:12:31.000Z</time>
      </trkpt>
      <trkpt lat="45.65921" lon="4.5932">
        <ele>621</ele>
        <time>2011-08-01T13:12:37.000Z</time>
      </trkpt>
      <trkpt lat="45.65917" lon="4.59325">
        <ele>622</ele>
        <time>2011-08-01T13:12:41.000Z</time>
      </trkpt>
      <trkpt lat="45.65916" lon="4.59326">
        <ele>622</ele>
        <time>2011-08-01T13:12:43.000Z</time>
      </trkpt>
      <trkpt lat="45.65913" lon="4.5933">
        <ele>622</ele>
        <time>2011-08-01T13:12:45.000Z</time>
      </trkpt>
      <trkpt lat="45.65911" lon="4.59333">
        <ele>623</ele>
        <time>2011-08-01T13:12:47.000Z</time>
      </trkpt>
      <trkpt lat="45.65909" lon="4.59338">
        <ele>624</ele>
        <time>2011-08-01T13:12:51.000Z</time>
      </trkpt>
      <trkpt lat="45.65903" lon="4.59348">
        <ele>624</ele>
        <time>2011-08-01T13:12:57.000Z</time>
      </trkpt>
      <trkpt lat="45.65901" lon="4.5935">
        <ele>625</ele>
        <time>2011-08-01T13:12:59.000Z</time>
      </trkpt>
      <trkpt lat="45.65896" lon="4.59358">
        <ele>626</ele>
        <time>2011-08-01T13:13:05.000Z</time>
      </trkpt>
      <trkpt lat="45.65895" lon="4.59359">
        <ele>626</ele>
        <time>2011-08-01T13:13:07.000Z</time>
      </trkpt>
      <trkpt lat="45.65889" lon="4.59369">
        <ele>627</ele>
        <time>2011-08-01T13:13:13.000Z</time>
      </trkpt>
      <trkpt lat="45.65883" lon="4.59376">
        <ele>628</ele>
        <time>2011-08-01T13:13:19.000Z</time>
      </trkpt>
      <trkpt lat="45.65873" lon="4.5939">
        <ele>629</ele>
        <time>2011-08-01T13:13:33.000Z</time>
      </trkpt>
      <trkpt lat="45.65868" lon="4.59396">
        <ele>629</ele>
        <time>2011-08-01T13:13:39.000Z</time>
      </trkpt>
      <trkpt lat="45.65866" lon="4.59398">
        <ele>630</ele>
        <time>2011-08-01T13:13:41.000Z</time>
      </trkpt>
      <trkpt lat="45.65862" lon="4.59403">
        <ele>631</ele>
        <time>2011-08-01T13:13:45.000Z</time>
      </trkpt>
      <trkpt lat="45.6585" lon="4.59415">
        <ele>632</ele>
        <time>2011-08-01T13:13:55.000Z</time>
      </trkpt>
      <trkpt lat="45.6585" lon="4.59417">
        <ele>632</ele>
        <time>2011-08-01T13:13:57.000Z</time>
      </trkpt>
      <trkpt lat="45.6585" lon="4.5942">
        <ele>632</ele>
        <time>2011-08-01T13:13:59.000Z</time>
      </trkpt>
      <trkpt lat="45.65849" lon="4.59422">
        <ele>632</ele>
        <time>2011-08-01T13:14:01.000Z</time>
      </trkpt>
      <trkpt lat="45.65848" lon="4.59426">
        <ele>633</ele>
        <time>2011-08-01T13:14:03.000Z</time>
      </trkpt>
      <trkpt lat="45.65846" lon="4.59428">
        <ele>633</ele>
        <time>2011-08-01T13:14:05.000Z</time>
      </trkpt>
      <trkpt lat="45.65843" lon="4.5943">
        <ele>633</ele>
        <time>2011-08-01T13:14:07.000Z</time>
      </trkpt>
      <trkpt lat="45.65841" lon="4.59431">
        <ele>634</ele>
        <time>2011-08-01T13:14:09.000Z</time>
      </trkpt>
      <trkpt lat="45.65833" lon="4.59439">
        <ele>634</ele>
        <time>2011-08-01T13:14:15.000Z</time>
      </trkpt>
      <trkpt lat="45.65831" lon="4.59441">
        <ele>635</ele>
        <time>2011-08-01T13:14:17.000Z</time>
      </trkpt>
      <trkpt lat="45.65825" lon="4.59447">
        <ele>636</ele>
        <time>2011-08-01T13:14:23.000Z</time>
      </trkpt>
      <trkpt lat="45.6582" lon="4.59453">
        <ele>637</ele>
        <time>2011-08-01T13:14:29.000Z</time>
      </trkpt>
      <trkpt lat="45.65819" lon="4.59454">
        <ele>637</ele>
        <time>2011-08-01T13:14:31.000Z</time>
      </trkpt>
      <trkpt lat="45.65816" lon="4.59457">
        <ele>638</ele>
        <time>2011-08-01T13:14:33.000Z</time>
      </trkpt>
      <trkpt lat="45.65814" lon="4.5946">
        <ele>639</ele>
        <time>2011-08-01T13:14:37.000Z</time>
      </trkpt>
      <trkpt lat="45.65801" lon="4.59473">
        <ele>640</ele>
        <time>2011-08-01T13:14:51.000Z</time>
      </trkpt>
      <trkpt lat="45.65799" lon="4.59475">
        <ele>640</ele>
        <time>2011-08-01T13:14:53.000Z</time>
      </trkpt>
      <trkpt lat="45.65796" lon="4.59479">
        <ele>641</ele>
        <time>2011-08-01T13:14:57.000Z</time>
      </trkpt>
      <trkpt lat="45.65791" lon="4.59486">
        <ele>642</ele>
        <time>2011-08-01T13:15:03.000Z</time>
      </trkpt>
      <trkpt lat="45.65788" lon="4.59488">
        <ele>641</ele>
        <time>2011-08-01T13:15:05.000Z</time>
      </trkpt>
      <trkpt lat="45.65786" lon="4.5949">
        <ele>642</ele>
        <time>2011-08-01T13:15:07.000Z</time>
      </trkpt>
      <trkpt lat="45.65784" lon="4.59492">
        <ele>642</ele>
        <time>2011-08-01T13:15:09.000Z</time>
      </trkpt>
      <trkpt lat="45.65782" lon="4.59493">
        <ele>642</ele>
        <time>2011-08-01T13:15:11.000Z</time>
      </trkpt>
      <trkpt lat="45.65775" lon="4.59497">
        <ele>643</ele>
        <time>2011-08-01T13:15:19.000Z</time>
      </trkpt>
      <trkpt lat="45.65773" lon="4.59499">
        <ele>643</ele>
        <time>2011-08-01T13:15:21.000Z</time>
      </trkpt>
      <trkpt lat="45.65763" lon="4.59504">
        <ele>643</ele>
        <time>2011-08-01T13:15:35.000Z</time>
      </trkpt>
      <trkpt lat="45.65751" lon="4.59511">
        <ele>644</ele>
        <time>2011-08-01T13:15:45.000Z</time>
      </trkpt>
      <trkpt lat="45.65745" lon="4.59516">
        <ele>644</ele>
        <time>2011-08-01T13:15:53.000Z</time>
      </trkpt>
      <trkpt lat="45.65741" lon="4.5952">
        <ele>645</ele>
        <time>2011-08-01T13:15:57.000Z</time>
      </trkpt>
      <trkpt lat="45.65738" lon="4.59524">
        <ele>645</ele>
        <time>2011-08-01T13:16:01.000Z</time>
      </trkpt>
      <trkpt lat="45.65736" lon="4.59527">
        <ele>646</ele>
        <time>2011-08-01T13:16:03.000Z</time>
      </trkpt>
      <trkpt lat="45.65734" lon="4.59531">
        <ele>646</ele>
        <time>2011-08-01T13:16:05.000Z</time>
      </trkpt>
      <trkpt lat="45.65733" lon="4.59535">
        <ele>646</ele>
        <time>2011-08-01T13:16:07.000Z</time>
      </trkpt>
      <trkpt lat="45.65731" lon="4.59547">
        <ele>647</ele>
        <time>2011-08-01T13:16:13.000Z</time>
      </trkpt>
      <trkpt lat="45.65728" lon="4.59559">
        <ele>648</ele>
        <time>2011-08-01T13:16:21.000Z</time>
      </trkpt>
      <trkpt lat="45.65724" lon="4.59571">
        <ele>648</ele>
        <time>2011-08-01T13:16:29.000Z</time>
      </trkpt>
      <trkpt lat="45.65722" lon="4.59575">
        <ele>649</ele>
        <time>2011-08-01T13:16:31.000Z</time>
      </trkpt>
      <trkpt lat="45.65718" lon="4.59582">
        <ele>649</ele>
        <time>2011-08-01T13:16:37.000Z</time>
      </trkpt>
      <trkpt lat="45.65718" lon="4.59583">
        <ele>649</ele>
        <time>2011-08-01T13:16:39.000Z</time>
      </trkpt>
      <trkpt lat="45.65715" lon="4.59584">
        <ele>649</ele>
        <time>2011-08-01T13:16:43.000Z</time>
      </trkpt>
      <trkpt lat="45.65714" lon="4.59585">
        <ele>650</ele>
        <time>2011-08-01T13:16:45.000Z</time>
      </trkpt>
      <trkpt lat="45.65713" lon="4.59585">
        <ele>650</ele>
        <time>2011-08-01T13:16:47.000Z</time>
      </trkpt>
      <trkpt lat="45.65712" lon="4.59587">
        <ele>650</ele>
        <time>2011-08-01T13:16:49.000Z</time>
      </trkpt>
      <trkpt lat="45.65711" lon="4.59588">
        <ele>651</ele>
        <time>2011-08-01T13:16:51.000Z</time>
      </trkpt>
      <trkpt lat="45.65711" lon="4.59589">
        <ele>651</ele>
        <time>2011-08-01T13:16:53.000Z</time>
      </trkpt>
      <trkpt lat="45.65713" lon="4.59592">
        <ele>649</ele>
        <time>2011-08-01T13:18:02.000Z</time>
      </trkpt>
      <trkpt lat="45.65713" lon="4.59592">
        <ele>650</ele>
        <time>2011-08-01T13:18:04.000Z</time>
      </trkpt>
      <trkpt lat="45.6571" lon="4.59605">
        <ele>649</ele>
        <time>2011-08-01T13:18:18.000Z</time>
      </trkpt>
      <trkpt lat="45.65708" lon="4.59622">
        <ele>648</ele>
        <time>2011-08-01T13:18:26.000Z</time>
      </trkpt>
      <trkpt lat="45.65712" lon="4.59641">
        <ele>647</ele>
        <time>2011-08-01T13:18:36.000Z</time>
      </trkpt>
      <trkpt lat="45.65713" lon="4.59641">
        <ele>647</ele>
        <time>2011-08-01T13:18:38.000Z</time>
      </trkpt>
      <trkpt lat="45.65718" lon="4.59642">
        <ele>646</ele>
        <time>2011-08-01T13:18:44.000Z</time>
      </trkpt>
      <trkpt lat="45.65745" lon="4.59651">
        <ele>649</ele>
        <time>2011-08-01T13:19:11.000Z</time>
      </trkpt>
      <trkpt lat="45.65751" lon="4.59654">
        <ele>649</ele>
        <time>2011-08-01T13:19:14.000Z</time>
      </trkpt>
      <trkpt lat="45.65754" lon="4.59656">
        <ele>650</ele>
        <time>2011-08-01T13:19:16.000Z</time>
      </trkpt>
      <trkpt lat="45.65755" lon="4.59656">
        <ele>651</ele>
        <time>2011-08-01T13:19:18.000Z</time>
      </trkpt>
      <trkpt lat="45.65764" lon="4.59659">
        <ele>652</ele>
        <time>2011-08-01T13:19:24.000Z</time>
      </trkpt>
      <trkpt lat="45.65767" lon="4.59659">
        <ele>653</ele>
        <time>2011-08-01T13:19:26.000Z</time>
      </trkpt>
      <trkpt lat="45.6577" lon="4.59659">
        <ele>654</ele>
        <time>2011-08-01T13:19:28.000Z</time>
      </trkpt>
      <trkpt lat="45.65775" lon="4.59659">
        <ele>655</ele>
        <time>2011-08-01T13:19:32.000Z</time>
      </trkpt>
      <trkpt lat="45.65778" lon="4.59659">
        <ele>656</ele>
        <time>2011-08-01T13:19:34.000Z</time>
      </trkpt>
      <trkpt lat="45.6578" lon="4.59659">
        <ele>657</ele>
        <time>2011-08-01T13:19:38.000Z</time>
      </trkpt>
      <trkpt lat="45.65785" lon="4.59659">
        <ele>658</ele>
        <time>2011-08-01T13:19:42.000Z</time>
      </trkpt>
      <trkpt lat="45.65789" lon="4.59659">
        <ele>659</ele>
        <time>2011-08-01T13:19:46.000Z</time>
      </trkpt>
      <trkpt lat="45.65798" lon="4.59659">
        <ele>660</ele>
        <time>2011-08-01T13:19:54.000Z</time>
      </trkpt>
      <trkpt lat="45.65799" lon="4.59659">
        <ele>660</ele>
        <time>2011-08-01T13:19:56.000Z</time>
      </trkpt>
      <trkpt lat="45.65802" lon="4.59658">
        <ele>661</ele>
        <time>2011-08-01T13:19:58.000Z</time>
      </trkpt>
      <trkpt lat="45.65808" lon="4.59658">
        <ele>662</ele>
        <time>2011-08-01T13:20:04.000Z</time>
      </trkpt>
      <trkpt lat="45.65809" lon="4.59658">
        <ele>662</ele>
        <time>2011-08-01T13:20:06.000Z</time>
      </trkpt>
      <trkpt lat="45.65808" lon="4.59658">
        <ele>663</ele>
        <time>2011-08-01T13:20:08.000Z</time>
      </trkpt>
      <trkpt lat="45.65811" lon="4.59659">
        <ele>663</ele>
        <time>2011-08-01T13:20:10.000Z</time>
      </trkpt>
      <trkpt lat="45.65813" lon="4.59659">
        <ele>664</ele>
        <time>2011-08-01T13:20:12.000Z</time>
      </trkpt>
      <trkpt lat="45.65817" lon="4.5966">
        <ele>665</ele>
        <time>2011-08-01T13:20:16.000Z</time>
      </trkpt>
      <trkpt lat="45.65825" lon="4.59661">
        <ele>666</ele>
        <time>2011-08-01T13:20:30.000Z</time>
      </trkpt>
      <trkpt lat="45.65826" lon="4.59661">
        <ele>666</ele>
        <time>2011-08-01T13:20:32.000Z</time>
      </trkpt>
      <trkpt lat="45.6583" lon="4.5966">
        <ele>667</ele>
        <time>2011-08-01T13:20:34.000Z</time>
      </trkpt>
      <trkpt lat="45.65832" lon="4.59659">
        <ele>668</ele>
        <time>2011-08-01T13:20:36.000Z</time>
      </trkpt>
      <trkpt lat="45.6584" lon="4.59651">
        <ele>669</ele>
        <time>2011-08-01T13:20:42.000Z</time>
      </trkpt>
      <trkpt lat="45.65846" lon="4.59645">
        <ele>670</ele>
        <time>2011-08-01T13:20:46.000Z</time>
      </trkpt>
      <trkpt lat="45.65853" lon="4.59641">
        <ele>671</ele>
        <time>2011-08-01T13:20:52.000Z</time>
      </trkpt>
      <trkpt lat="45.65855" lon="4.59639">
        <ele>672</ele>
        <time>2011-08-01T13:20:54.000Z</time>
      </trkpt>
      <trkpt lat="45.65857" lon="4.59638">
        <ele>673</ele>
        <time>2011-08-01T13:20:56.000Z</time>
      </trkpt>
      <trkpt lat="45.65861" lon="4.59636">
        <ele>674</ele>
        <time>2011-08-01T13:21:00.000Z</time>
      </trkpt>
      <trkpt lat="45.65862" lon="4.59636">
        <ele>675</ele>
        <time>2011-08-01T13:21:02.000Z</time>
      </trkpt>
      <trkpt lat="45.6587" lon="4.59633">
        <ele>674</ele>
        <time>2011-08-01T13:21:08.000Z</time>
      </trkpt>
      <trkpt lat="45.65872" lon="4.59632">
        <ele>675</ele>
        <time>2011-08-01T13:21:10.000Z</time>
      </trkpt>
      <trkpt lat="45.65881" lon="4.5963">
        <ele>675</ele>
        <time>2011-08-01T13:21:18.000Z</time>
      </trkpt>
      <trkpt lat="45.65884" lon="4.5963">
        <ele>675</ele>
        <time>2011-08-01T13:21:22.000Z</time>
      </trkpt>
      <trkpt lat="45.65886" lon="4.5963">
        <ele>676</ele>
        <time>2011-08-01T13:21:24.000Z</time>
      </trkpt>
      <trkpt lat="45.65895" lon="4.59626">
        <ele>676</ele>
        <time>2011-08-01T13:21:42.000Z</time>
      </trkpt>
      <trkpt lat="45.65896" lon="4.59626">
        <ele>676</ele>
        <time>2011-08-01T13:21:44.000Z</time>
      </trkpt>
      <trkpt lat="45.659" lon="4.59624">
        <ele>676</ele>
        <time>2011-08-01T13:22:00.000Z</time>
      </trkpt>
      <trkpt lat="45.659" lon="4.59624">
        <ele>676</ele>
        <time>2011-08-01T13:22:20.000Z</time>
      </trkpt>
      <trkpt lat="45.65909" lon="4.59621">
        <ele>677</ele>
        <time>2011-08-01T13:23:16.000Z</time>
      </trkpt>
      <trkpt lat="45.6591" lon="4.59622">
        <ele>677</ele>
        <time>2011-08-01T13:23:30.000Z</time>
      </trkpt>
      <trkpt lat="45.6591" lon="4.59622">
        <ele>677</ele>
        <time>2011-08-01T13:23:32.000Z</time>
      </trkpt>
      <trkpt lat="45.6591" lon="4.59622">
        <ele>677</ele>
        <time>2011-08-01T13:23:52.000Z</time>
      </trkpt>
      <trkpt lat="45.65884" lon="4.59612">
        <ele>678</ele>
        <time>2011-08-01T13:24:52.000Z</time>
      </trkpt>
      <trkpt lat="45.65857" lon="4.59624">
        <ele>677</ele>
        <time>2011-08-01T13:25:08.000Z</time>
      </trkpt>
      <trkpt lat="45.65847" lon="4.59631">
        <ele>677</ele>
        <time>2011-08-01T13:25:16.000Z</time>
      </trkpt>
      <trkpt lat="45.6581" lon="4.59652">
        <ele>677</ele>
        <time>2011-08-01T13:25:42.000Z</time>
      </trkpt>
      <trkpt lat="45.658" lon="4.59654">
        <ele>677</ele>
        <time>2011-08-01T13:25:48.000Z</time>
      </trkpt>
      <trkpt lat="45.65769" lon="4.5966">
        <ele>675</ele>
        <time>2011-08-01T13:26:04.000Z</time>
      </trkpt>
      <trkpt lat="45.65763" lon="4.59662">
        <ele>675</ele>
        <time>2011-08-01T13:26:08.000Z</time>
      </trkpt>
      <trkpt lat="45.65754" lon="4.59664">
        <ele>674</ele>
        <time>2011-08-01T13:26:14.000Z</time>
      </trkpt>
      <trkpt lat="45.65744" lon="4.59663">
        <ele>674</ele>
        <time>2011-08-01T13:26:22.000Z</time>
      </trkpt>
      <trkpt lat="45.65742" lon="4.59661">
        <ele>673</ele>
        <time>2011-08-01T13:26:24.000Z</time>
      </trkpt>
      <trkpt lat="45.65739" lon="4.5966">
        <ele>672</ele>
        <time>2011-08-01T13:26:26.000Z</time>
      </trkpt>
      <trkpt lat="45.65734" lon="4.59655">
        <ele>672</ele>
        <time>2011-08-01T13:26:32.000Z</time>
      </trkpt>
      <trkpt lat="45.65724" lon="4.59646">
        <ele>671</ele>
        <time>2011-08-01T13:26:44.000Z</time>
      </trkpt>
      <trkpt lat="45.65719" lon="4.59641">
        <ele>670</ele>
        <time>2011-08-01T13:26:50.000Z</time>
      </trkpt>
      <trkpt lat="45.65718" lon="4.5964">
        <ele>670</ele>
        <time>2011-08-01T13:26:52.000Z</time>
      </trkpt>
      <trkpt lat="45.65714" lon="4.59633">
        <ele>669</ele>
        <time>2011-08-01T13:26:58.000Z</time>
      </trkpt>
      <trkpt lat="45.65711" lon="4.59627">
        <ele>668</ele>
        <time>2011-08-01T13:27:04.000Z</time>
      </trkpt>
      <trkpt lat="45.65709" lon="4.59625">
        <ele>668</ele>
        <time>2011-08-01T13:27:08.000Z</time>
      </trkpt>
      <trkpt lat="45.65708" lon="4.59624">
        <ele>667</ele>
        <time>2011-08-01T13:27:10.000Z</time>
      </trkpt>
      <trkpt lat="45.65704" lon="4.59618">
        <ele>667</ele>
        <time>2011-08-01T13:27:18.000Z</time>
      </trkpt>
      <trkpt lat="45.65703" lon="4.59617">
        <ele>667</ele>
        <time>2011-08-01T13:27:20.000Z</time>
      </trkpt>
      <trkpt lat="45.65694" lon="4.59613">
        <ele>667</ele>
        <time>2011-08-01T13:27:36.000Z</time>
      </trkpt>
      <trkpt lat="45.6569" lon="4.59613">
        <ele>667</ele>
        <time>2011-08-01T13:27:40.000Z</time>
      </trkpt>
      <trkpt lat="45.65689" lon="4.59612">
        <ele>667</ele>
        <time>2011-08-01T13:27:42.000Z</time>
      </trkpt>
      <trkpt lat="45.65685" lon="4.59611">
        <ele>668</ele>
        <time>2011-08-01T13:27:44.000Z</time>
      </trkpt>
      <trkpt lat="45.65676" lon="4.59605">
        <ele>667</ele>
        <time>2011-08-01T13:28:02.000Z</time>
      </trkpt>
      <trkpt lat="45.65672" lon="4.59602">
        <ele>666</ele>
        <time>2011-08-01T13:28:08.000Z</time>
      </trkpt>
      <trkpt lat="45.65667" lon="4.59598">
        <ele>665</ele>
        <time>2011-08-01T13:28:14.000Z</time>
      </trkpt>
      <trkpt lat="45.65654" lon="4.59587">
        <ele>664</ele>
        <time>2011-08-01T13:28:24.000Z</time>
      </trkpt>
      <trkpt lat="45.65651" lon="4.59585">
        <ele>664</ele>
        <time>2011-08-01T13:28:26.000Z</time>
      </trkpt>
      <trkpt lat="45.65643" lon="4.59576">
        <ele>663</ele>
        <time>2011-08-01T13:28:32.000Z</time>
      </trkpt>
      <trkpt lat="45.65603" lon="4.59534">
        <ele>664</ele>
        <time>2011-08-01T13:29:06.000Z</time>
      </trkpt>
      <trkpt lat="45.65583" lon="4.59515">
        <ele>665</ele>
        <time>2011-08-01T13:29:22.000Z</time>
      </trkpt>
      <trkpt lat="45.65581" lon="4.59514">
        <ele>665</ele>
        <time>2011-08-01T13:29:24.000Z</time>
      </trkpt>
      <trkpt lat="45.65569" lon="4.59506">
        <ele>666</ele>
        <time>2011-08-01T13:29:34.000Z</time>
      </trkpt>
      <trkpt lat="45.65562" lon="4.59497">
        <ele>666</ele>
        <time>2011-08-01T13:29:40.000Z</time>
      </trkpt>
      <trkpt lat="45.65556" lon="4.59479">
        <ele>667</ele>
        <time>2011-08-01T13:29:56.000Z</time>
      </trkpt>
      <trkpt lat="45.6555" lon="4.59464">
        <ele>668</ele>
        <time>2011-08-01T13:30:06.000Z</time>
      </trkpt>
      <trkpt lat="45.65548" lon="4.59461">
        <ele>668</ele>
        <time>2011-08-01T13:30:08.000Z</time>
      </trkpt>
      <trkpt lat="45.65545" lon="4.59455">
        <ele>669</ele>
        <time>2011-08-01T13:30:12.000Z</time>
      </trkpt>
      <trkpt lat="45.65535" lon="4.5943">
        <ele>670</ele>
        <time>2011-08-01T13:30:28.000Z</time>
      </trkpt>
      <trkpt lat="45.65517" lon="4.59387">
        <ele>671</ele>
        <time>2011-08-01T13:30:52.000Z</time>
      </trkpt>
      <trkpt lat="45.65517" lon="4.59386">
        <ele>671</ele>
        <time>2011-08-01T13:30:54.000Z</time>
      </trkpt>
      <trkpt lat="45.65511" lon="4.59368">
        <ele>672</ele>
        <time>2011-08-01T13:31:04.000Z</time>
      </trkpt>
      <trkpt lat="45.65509" lon="4.59363">
        <ele>673</ele>
        <time>2011-08-01T13:31:06.000Z</time>
      </trkpt>
      <trkpt lat="45.65504" lon="4.59344">
        <ele>674</ele>
        <time>2011-08-01T13:31:16.000Z</time>
      </trkpt>
      <trkpt lat="45.65501" lon="4.59336">
        <ele>675</ele>
        <time>2011-08-01T13:31:20.000Z</time>
      </trkpt>
      <trkpt lat="45.65477" lon="4.59281">
        <ele>675</ele>
        <time>2011-08-01T13:31:56.000Z</time>
      </trkpt>
      <trkpt lat="45.65471" lon="4.59271">
        <ele>676</ele>
        <time>2011-08-01T13:32:08.000Z</time>
      </trkpt>
      <trkpt lat="45.65471" lon="4.59271">
        <ele>676</ele>
        <time>2011-08-01T13:32:28.000Z</time>
      </trkpt>
      <trkpt lat="45.65454" lon="4.5924">
        <ele>676</ele>
        <time>2011-08-01T13:32:42.000Z</time>
      </trkpt>
      <trkpt lat="45.65427" lon="4.59179">
        <ele>677</ele>
        <time>2011-08-01T13:33:14.000Z</time>
      </trkpt>
      <trkpt lat="45.65425" lon="4.59175">
        <ele>677</ele>
        <time>2011-08-01T13:33:16.000Z</time>
      </trkpt>
      <trkpt lat="45.65423" lon="4.59155">
        <ele>678</ele>
        <time>2011-08-01T13:33:28.000Z</time>
      </trkpt>
      <trkpt lat="45.65425" lon="4.59141">
        <ele>678</ele>
        <time>2011-08-01T13:33:38.000Z</time>
      </trkpt>
      <trkpt lat="45.65436" lon="4.59091">
        <ele>680</ele>
        <time>2011-08-01T13:34:14.000Z</time>
      </trkpt>
      <trkpt lat="45.65436" lon="4.59091">
        <ele>680</ele>
        <time>2011-08-01T13:34:34.000Z</time>
      </trkpt>
      <trkpt lat="45.65456" lon="4.59063">
        <ele>680</ele>
        <time>2011-08-01T13:34:36.000Z</time>
      </trkpt>
      <trkpt lat="45.65456" lon="4.59063">
        <ele>680</ele>
        <time>2011-08-01T13:34:56.000Z</time>
      </trkpt>
      <trkpt lat="45.6547" lon="4.5903">
        <ele>681</ele>
        <time>2011-08-01T13:35:02.000Z</time>
      </trkpt>
      <trkpt lat="45.65471" lon="4.59015">
        <ele>681</ele>
        <time>2011-08-01T13:35:08.000Z</time>
      </trkpt>
      <trkpt lat="45.65471" lon="4.58991">
        <ele>681</ele>
        <time>2011-08-01T13:35:14.000Z</time>
      </trkpt>
      <trkpt lat="45.65467" lon="4.58965">
        <ele>682</ele>
        <time>2011-08-01T13:35:24.000Z</time>
      </trkpt>
      <trkpt lat="45.65466" lon="4.5896">
        <ele>682</ele>
        <time>2011-08-01T13:35:26.000Z</time>
      </trkpt>
      <trkpt lat="45.65446" lon="4.58915">
        <ele>682</ele>
        <time>2011-08-01T13:36:00.000Z</time>
      </trkpt>
      <trkpt lat="45.65442" lon="4.58907">
        <ele>684</ele>
        <time>2011-08-01T13:36:06.000Z</time>
      </trkpt>
      <trkpt lat="45.65439" lon="4.58894">
        <ele>684</ele>
        <time>2011-08-01T13:36:14.000Z</time>
      </trkpt>
      <trkpt lat="45.65438" lon="4.5889">
        <ele>684</ele>
        <time>2011-08-01T13:36:18.000Z</time>
      </trkpt>
      <trkpt lat="45.65437" lon="4.58889">
        <ele>685</ele>
        <time>2011-08-01T13:36:20.000Z</time>
      </trkpt>
      <trkpt lat="45.65429" lon="4.58872">
        <ele>685</ele>
        <time>2011-08-01T13:36:34.000Z</time>
      </trkpt>
      <trkpt lat="45.65422" lon="4.5886">
        <ele>686</ele>
        <time>2011-08-01T13:36:40.000Z</time>
      </trkpt>
      <trkpt lat="45.65411" lon="4.58838">
        <ele>687</ele>
        <time>2011-08-01T13:36:52.000Z</time>
      </trkpt>
      <trkpt lat="45.65397" lon="4.58813">
        <ele>688</ele>
        <time>2011-08-01T13:37:08.000Z</time>
      </trkpt>
      <trkpt lat="45.65377" lon="4.58792">
        <ele>689</ele>
        <time>2011-08-01T13:37:28.000Z</time>
      </trkpt>
      <trkpt lat="45.65377" lon="4.58792">
        <ele>689</ele>
        <time>2011-08-01T13:37:48.000Z</time>
      </trkpt>
      <trkpt lat="45.6535" lon="4.58779">
        <ele>690</ele>
        <time>2011-08-01T13:37:56.000Z</time>
      </trkpt>
      <trkpt lat="45.6535" lon="4.58779">
        <ele>690</ele>
        <time>2011-08-01T13:38:16.000Z</time>
      </trkpt>
      <trkpt lat="45.65324" lon="4.58765">
        <ele>692</ele>
        <time>2011-08-01T13:38:24.000Z</time>
      </trkpt>
      <trkpt lat="45.65324" lon="4.58765">
        <ele>692</ele>
        <time>2011-08-01T13:38:44.000Z</time>
      </trkpt>
      <trkpt lat="45.65308" lon="4.58732">
        <ele>694</ele>
        <time>2011-08-01T13:38:50.000Z</time>
      </trkpt>
      <trkpt lat="45.65306" lon="4.58718">
        <ele>694</ele>
        <time>2011-08-01T13:38:54.000Z</time>
      </trkpt>
      <trkpt lat="45.65306" lon="4.58696">
        <ele>696</ele>
        <time>2011-08-01T13:39:00.000Z</time>
      </trkpt>
      <trkpt lat="45.65306" lon="4.58682">
        <ele>697</ele>
        <time>2011-08-01T13:39:06.000Z</time>
      </trkpt>
      <trkpt lat="45.65306" lon="4.58669">
        <ele>698</ele>
        <time>2011-08-01T13:39:10.000Z</time>
      </trkpt>
      <trkpt lat="45.6531" lon="4.58655">
        <ele>699</ele>
        <time>2011-08-01T13:39:20.000Z</time>
      </trkpt>
      <trkpt lat="45.65314" lon="4.58644">
        <ele>700</ele>
        <time>2011-08-01T13:39:28.000Z</time>
      </trkpt>
      <trkpt lat="45.65314" lon="4.58644">
        <ele>700</ele>
        <time>2011-08-01T13:39:48.000Z</time>
      </trkpt>
      <trkpt lat="45.65319" lon="4.58623">
        <ele>703</ele>
        <time>2011-08-01T13:40:52.000Z</time>
      </trkpt>
      <trkpt lat="45.65319" lon="4.58624">
        <ele>704</ele>
        <time>2011-08-01T13:40:54.000Z</time>
      </trkpt>
      <trkpt lat="45.65319" lon="4.58628">
        <ele>705</ele>
        <time>2011-08-01T13:41:00.000Z</time>
      </trkpt>
      <trkpt lat="45.65311" lon="4.58629">
        <ele>706</ele>
        <time>2011-08-01T13:41:14.000Z</time>
      </trkpt>
      <trkpt lat="45.6531" lon="4.5863">
        <ele>707</ele>
        <time>2011-08-01T13:41:16.000Z</time>
      </trkpt>
      <trkpt lat="45.65307" lon="4.58633">
        <ele>709</ele>
        <time>2011-08-01T13:41:32.000Z</time>
      </trkpt>
      <trkpt lat="45.65307" lon="4.58633">
        <ele>709</ele>
        <time>2011-08-01T13:41:52.000Z</time>
      </trkpt>
      <trkpt lat="45.65334" lon="4.58624">
        <ele>712</ele>
        <time>2011-08-01T13:43:20.000Z</time>
      </trkpt>
      <trkpt lat="45.6536" lon="4.58616">
        <ele>713</ele>
        <time>2011-08-01T13:43:40.000Z</time>
      </trkpt>
      <trkpt lat="45.65387" lon="4.58606">
        <ele>715</ele>
        <time>2011-08-01T13:43:56.000Z</time>
      </trkpt>
      <trkpt lat="45.65397" lon="4.58596">
        <ele>716</ele>
        <time>2011-08-01T13:44:02.000Z</time>
      </trkpt>
      <trkpt lat="45.65402" lon="4.58591">
        <ele>717</ele>
        <time>2011-08-01T13:44:04.000Z</time>
      </trkpt>
      <trkpt lat="45.65424" lon="4.58568">
        <ele>713</ele>
        <time>2011-08-01T13:44:20.000Z</time>
      </trkpt>
      <trkpt lat="45.65449" lon="4.58546">
        <ele>714</ele>
        <time>2011-08-01T13:44:38.000Z</time>
      </trkpt>
      <trkpt lat="45.65455" lon="4.58538">
        <ele>714</ele>
        <time>2011-08-01T13:44:42.000Z</time>
      </trkpt>
      <trkpt lat="45.65459" lon="4.5853">
        <ele>714</ele>
        <time>2011-08-01T13:44:46.000Z</time>
      </trkpt>
      <trkpt lat="45.65478" lon="4.58496">
        <ele>712</ele>
        <time>2011-08-01T13:45:08.000Z</time>
      </trkpt>
      <trkpt lat="45.65482" lon="4.58471">
        <ele>712</ele>
        <time>2011-08-01T13:45:18.000Z</time>
      </trkpt>
      <trkpt lat="45.65482" lon="4.58458">
        <ele>712</ele>
        <time>2011-08-01T13:45:22.000Z</time>
      </trkpt>
      <trkpt lat="45.65481" lon="4.58445">
        <ele>711</ele>
        <time>2011-08-01T13:45:24.000Z</time>
      </trkpt>
      <trkpt lat="45.6548" lon="4.58428">
        <ele>710</ele>
        <time>2011-08-01T13:45:28.000Z</time>
      </trkpt>
      <trkpt lat="45.65479" lon="4.58414">
        <ele>709</ele>
        <time>2011-08-01T13:45:32.000Z</time>
      </trkpt>
      <trkpt lat="45.65476" lon="4.58397">
        <ele>708</ele>
        <time>2011-08-01T13:45:38.000Z</time>
      </trkpt>
      <trkpt lat="45.65471" lon="4.58369">
        <ele>707</ele>
        <time>2011-08-01T13:45:54.000Z</time>
      </trkpt>
      <trkpt lat="45.65471" lon="4.58367">
        <ele>706</ele>
        <time>2011-08-01T13:45:56.000Z</time>
      </trkpt>
      <trkpt lat="45.65469" lon="4.5835">
        <ele>705</ele>
        <time>2011-08-01T13:46:02.000Z</time>
      </trkpt>
      <trkpt lat="45.65468" lon="4.58346">
        <ele>705</ele>
        <time>2011-08-01T13:46:04.000Z</time>
      </trkpt>
      <trkpt lat="45.65464" lon="4.58331">
        <ele>704</ele>
        <time>2011-08-01T13:46:12.000Z</time>
      </trkpt>
      <trkpt lat="45.65462" lon="4.5832">
        <ele>705</ele>
        <time>2011-08-01T13:46:18.000Z</time>
      </trkpt>
      <trkpt lat="45.65459" lon="4.58307">
        <ele>704</ele>
        <time>2011-08-01T13:46:24.000Z</time>
      </trkpt>
      <trkpt lat="45.65444" lon="4.58237">
        <ele>703</ele>
        <time>2011-08-01T13:46:54.000Z</time>
      </trkpt>
      <trkpt lat="45.65443" lon="4.58229">
        <ele>703</ele>
        <time>2011-08-01T13:46:56.000Z</time>
      </trkpt>
      <trkpt lat="45.65443" lon="4.58224">
        <ele>703</ele>
        <time>2011-08-01T13:46:58.000Z</time>
      </trkpt>
      <trkpt lat="45.65443" lon="4.58221">
        <ele>703</ele>
        <time>2011-08-01T13:47:00.000Z</time>
      </trkpt>
      <trkpt lat="45.65443" lon="4.58207">
        <ele>703</ele>
        <time>2011-08-01T13:47:04.000Z</time>
      </trkpt>
      <trkpt lat="45.65446" lon="4.58181">
        <ele>704</ele>
        <time>2011-08-01T13:47:18.000Z</time>
      </trkpt>
      <trkpt lat="45.65446" lon="4.58167">
        <ele>704</ele>
        <time>2011-08-01T13:47:22.000Z</time>
      </trkpt>
      <trkpt lat="45.65439" lon="4.58127">
        <ele>705</ele>
        <time>2011-08-01T13:47:38.000Z</time>
      </trkpt>
      <trkpt lat="45.65432" lon="4.58116">
        <ele>704</ele>
        <time>2011-08-01T13:47:48.000Z</time>
      </trkpt>
      <trkpt lat="45.65422" lon="4.58104">
        <ele>704</ele>
        <time>2011-08-01T13:47:58.000Z</time>
      </trkpt>
      <trkpt lat="45.65409" lon="4.58057">
        <ele>706</ele>
        <time>2011-08-01T13:48:26.000Z</time>
      </trkpt>
      <trkpt lat="45.65409" lon="4.58057">
        <ele>706</ele>
        <time>2011-08-01T13:48:46.000Z</time>
      </trkpt>
      <trkpt lat="45.65413" lon="4.58026">
        <ele>706</ele>
        <time>2011-08-01T13:48:50.000Z</time>
      </trkpt>
      <trkpt lat="45.65414" lon="4.58024">
        <ele>706</ele>
        <time>2011-08-01T13:48:52.000Z</time>
      </trkpt>
      <trkpt lat="45.65415" lon="4.58022">
        <ele>707</ele>
        <time>2011-08-01T13:48:54.000Z</time>
      </trkpt>
      <trkpt lat="45.65415" lon="4.58022">
        <ele>707</ele>
        <time>2011-08-01T13:49:14.000Z</time>
      </trkpt>
      <trkpt lat="45.65441" lon="4.58006">
        <ele>710</ele>
        <time>2011-08-01T13:49:18.000Z</time>
      </trkpt>
      <trkpt lat="45.65453" lon="4.58005">
        <ele>710</ele>
        <time>2011-08-01T13:49:22.000Z</time>
      </trkpt>
      <trkpt lat="45.65456" lon="4.58004">
        <ele>711</ele>
        <time>2011-08-01T13:49:24.000Z</time>
      </trkpt>
      <trkpt lat="45.65485" lon="4.57995">
        <ele>712</ele>
        <time>2011-08-01T13:49:36.000Z</time>
      </trkpt>
      <trkpt lat="45.65509" lon="4.57975">
        <ele>713</ele>
        <time>2011-08-01T13:49:52.000Z</time>
      </trkpt>
      <trkpt lat="45.6551" lon="4.5796">
        <ele>714</ele>
        <time>2011-08-01T13:49:58.000Z</time>
      </trkpt>
      <trkpt lat="45.65509" lon="4.57953">
        <ele>714</ele>
        <time>2011-08-01T13:50:00.000Z</time>
      </trkpt>
      <trkpt lat="45.65508" lon="4.57947">
        <ele>715</ele>
        <time>2011-08-01T13:50:02.000Z</time>
      </trkpt>
      <trkpt lat="45.65506" lon="4.57941">
        <ele>712</ele>
        <time>2011-08-01T13:50:04.000Z</time>
      </trkpt>
      <trkpt lat="45.65504" lon="4.57935">
        <ele>713</ele>
        <time>2011-08-01T13:50:06.000Z</time>
      </trkpt>
      <trkpt lat="45.65504" lon="4.57932">
        <ele>712</ele>
        <time>2011-08-01T13:50:08.000Z</time>
      </trkpt>
      <trkpt lat="45.65498" lon="4.57911">
        <ele>711</ele>
        <time>2011-08-01T13:50:18.000Z</time>
      </trkpt>
      <trkpt lat="45.65495" lon="4.57902">
        <ele>712</ele>
        <time>2011-08-01T13:50:22.000Z</time>
      </trkpt>
      <trkpt lat="45.65495" lon="4.579">
        <ele>711</ele>
        <time>2011-08-01T13:50:24.000Z</time>
      </trkpt>
      <trkpt lat="45.65484" lon="4.57835">
        <ele>712</ele>
        <time>2011-08-01T13:50:54.000Z</time>
      </trkpt>
      <trkpt lat="45.65479" lon="4.57808">
        <ele>713</ele>
        <time>2011-08-01T13:51:08.000Z</time>
      </trkpt>
      <trkpt lat="45.65476" lon="4.57796">
        <ele>713</ele>
        <time>2011-08-01T13:51:14.000Z</time>
      </trkpt>
      <trkpt lat="45.6547" lon="4.57771">
        <ele>714</ele>
        <time>2011-08-01T13:51:26.000Z</time>
      </trkpt>
      <trkpt lat="45.65467" lon="4.57747">
        <ele>714</ele>
        <time>2011-08-01T13:51:38.000Z</time>
      </trkpt>
      <trkpt lat="45.65466" lon="4.57734">
        <ele>715</ele>
        <time>2011-08-01T13:51:44.000Z</time>
      </trkpt>
      <trkpt lat="45.65462" lon="4.57685">
        <ele>716</ele>
        <time>2011-08-01T13:52:18.000Z</time>
      </trkpt>
      <trkpt lat="45.6546" lon="4.57615">
        <ele>717</ele>
        <time>2011-08-01T13:52:54.000Z</time>
      </trkpt>
      <trkpt lat="45.6546" lon="4.57613">
        <ele>717</ele>
        <time>2011-08-01T13:52:56.000Z</time>
      </trkpt>
      <trkpt lat="45.6546" lon="4.57613">
        <ele>717</ele>
        <time>2011-08-01T13:53:16.000Z</time>
      </trkpt>
      <trkpt lat="45.65467" lon="4.57576">
        <ele>719</ele>
        <time>2011-08-01T13:53:28.000Z</time>
      </trkpt>
      <trkpt lat="45.65472" lon="4.57561">
        <ele>720</ele>
        <time>2011-08-01T13:53:36.000Z</time>
      </trkpt>
      <trkpt lat="45.6549" lon="4.57525">
        <ele>722</ele>
        <time>2011-08-01T13:54:00.000Z</time>
      </trkpt>
      <trkpt lat="45.65497" lon="4.57512">
        <ele>723</ele>
        <time>2011-08-01T13:54:08.000Z</time>
      </trkpt>
      <trkpt lat="45.655" lon="4.57501">
        <ele>723</ele>
        <time>2011-08-01T13:54:12.000Z</time>
      </trkpt>
      <trkpt lat="45.65507" lon="4.57485">
        <ele>724</ele>
        <time>2011-08-01T13:54:18.000Z</time>
      </trkpt>
      <trkpt lat="45.65509" lon="4.57481">
        <ele>724</ele>
        <time>2011-08-01T13:54:20.000Z</time>
      </trkpt>
      <trkpt lat="45.65514" lon="4.5748">
        <ele>724</ele>
        <time>2011-08-01T13:54:22.000Z</time>
      </trkpt>
      <trkpt lat="45.65518" lon="4.57479">
        <ele>725</ele>
        <time>2011-08-01T13:54:24.000Z</time>
      </trkpt>
      <trkpt lat="45.6552" lon="4.57478">
        <ele>725</ele>
        <time>2011-08-01T13:54:26.000Z</time>
      </trkpt>
      <trkpt lat="45.65529" lon="4.57469">
        <ele>725</ele>
        <time>2011-08-01T13:54:32.000Z</time>
      </trkpt>
      <trkpt lat="45.65536" lon="4.57461">
        <ele>726</ele>
        <time>2011-08-01T13:54:38.000Z</time>
      </trkpt>
      <trkpt lat="45.65542" lon="4.57452">
        <ele>726</ele>
        <time>2011-08-01T13:54:48.000Z</time>
      </trkpt>
      <trkpt lat="45.65546" lon="4.5744">
        <ele>727</ele>
        <time>2011-08-01T13:54:58.000Z</time>
      </trkpt>
      <trkpt lat="45.65548" lon="4.57433">
        <ele>727</ele>
        <time>2011-08-01T13:55:04.000Z</time>
      </trkpt>
      <trkpt lat="45.65548" lon="4.5743">
        <ele>725</ele>
        <time>2011-08-01T13:55:06.000Z</time>
      </trkpt>
      <trkpt lat="45.65548" lon="4.57428">
        <ele>725</ele>
        <time>2011-08-01T13:55:08.000Z</time>
      </trkpt>
      <trkpt lat="45.65549" lon="4.57413">
        <ele>724</ele>
        <time>2011-08-01T13:55:12.000Z</time>
      </trkpt>
      <trkpt lat="45.65549" lon="4.57404">
        <ele>723</ele>
        <time>2011-08-01T13:55:16.000Z</time>
      </trkpt>
      <trkpt lat="45.65549" lon="4.57389">
        <ele>722</ele>
        <time>2011-08-01T13:55:22.000Z</time>
      </trkpt>
      <trkpt lat="45.6555" lon="4.57385">
        <ele>722</ele>
        <time>2011-08-01T13:55:24.000Z</time>
      </trkpt>
      <trkpt lat="45.6555" lon="4.5738">
        <ele>721</ele>
        <time>2011-08-01T13:55:26.000Z</time>
      </trkpt>
      <trkpt lat="45.6555" lon="4.57366">
        <ele>720</ele>
        <time>2011-08-01T13:55:36.000Z</time>
      </trkpt>
      <trkpt lat="45.6555" lon="4.57363">
        <ele>720</ele>
        <time>2011-08-01T13:55:38.000Z</time>
      </trkpt>
      <trkpt lat="45.6555" lon="4.57359">
        <ele>719</ele>
        <time>2011-08-01T13:55:40.000Z</time>
      </trkpt>
      <trkpt lat="45.6555" lon="4.57357">
        <ele>719</ele>
        <time>2011-08-01T13:55:42.000Z</time>
      </trkpt>
      <trkpt lat="45.65555" lon="4.57344">
        <ele>718</ele>
        <time>2011-08-01T13:55:48.000Z</time>
      </trkpt>
      <trkpt lat="45.6556" lon="4.57333">
        <ele>718</ele>
        <time>2011-08-01T13:55:55.000Z</time>
      </trkpt>
      <trkpt lat="45.65567" lon="4.57321">
        <ele>719</ele>
        <time>2011-08-01T13:56:04.000Z</time>
      </trkpt>
      <trkpt lat="45.65576" lon="4.57312">
        <ele>719</ele>
        <time>2011-08-01T13:56:18.000Z</time>
      </trkpt>
      <trkpt lat="45.65579" lon="4.57312">
        <ele>718</ele>
        <time>2011-08-01T13:56:20.000Z</time>
      </trkpt>
      <trkpt lat="45.65586" lon="4.57311">
        <ele>719</ele>
        <time>2011-08-01T13:56:26.000Z</time>
      </trkpt>
      <trkpt lat="45.6559" lon="4.57309">
        <ele>719</ele>
        <time>2011-08-01T13:56:28.000Z</time>
      </trkpt>
      <trkpt lat="45.65595" lon="4.57305">
        <ele>719</ele>
        <time>2011-08-01T13:56:30.000Z</time>
      </trkpt>
      <trkpt lat="45.65609" lon="4.57292">
        <ele>719</ele>
        <time>2011-08-01T13:56:36.000Z</time>
      </trkpt>
      <trkpt lat="45.65611" lon="4.57288">
        <ele>719</ele>
        <time>2011-08-01T13:56:38.000Z</time>
      </trkpt>
      <trkpt lat="45.65617" lon="4.57271">
        <ele>719</ele>
        <time>2011-08-01T13:56:48.000Z</time>
      </trkpt>
      <trkpt lat="45.65617" lon="4.57269">
        <ele>719</ele>
        <time>2011-08-01T13:56:50.000Z</time>
      </trkpt>
      <trkpt lat="45.65618" lon="4.57236">
        <ele>718</ele>
        <time>2011-08-01T13:57:10.000Z</time>
      </trkpt>
      <trkpt lat="45.65619" lon="4.57218">
        <ele>717</ele>
        <time>2011-08-01T13:57:18.000Z</time>
      </trkpt>
      <trkpt lat="45.6562" lon="4.5721">
        <ele>716</ele>
        <time>2011-08-01T13:57:24.000Z</time>
      </trkpt>
      <trkpt lat="45.65623" lon="4.57192">
        <ele>715</ele>
        <time>2011-08-01T13:57:34.000Z</time>
      </trkpt>
      <trkpt lat="45.65635" lon="4.57173">
        <ele>715</ele>
        <time>2011-08-01T13:57:58.000Z</time>
      </trkpt>
      <trkpt lat="45.65646" lon="4.57176">
        <ele>716</ele>
        <time>2011-08-01T13:58:06.000Z</time>
      </trkpt>
      <trkpt lat="45.65646" lon="4.57176">
        <ele>716</ele>
        <time>2011-08-01T13:58:26.000Z</time>
      </trkpt>
      <trkpt lat="45.65671" lon="4.57192">
        <ele>715</ele>
        <time>2011-08-01T13:58:32.000Z</time>
      </trkpt>
      <trkpt lat="45.65671" lon="4.57192">
        <ele>715</ele>
        <time>2011-08-01T13:58:52.000Z</time>
      </trkpt>
      <trkpt lat="45.65696" lon="4.5721">
        <ele>716</ele>
        <time>2011-08-01T13:58:54.000Z</time>
      </trkpt>
      <trkpt lat="45.65721" lon="4.57224">
        <ele>714</ele>
        <time>2011-08-01T13:59:12.000Z</time>
      </trkpt>
      <trkpt lat="45.65734" lon="4.57224">
        <ele>714</ele>
        <time>2011-08-01T13:59:26.000Z</time>
      </trkpt>
      <trkpt lat="45.65734" lon="4.5722">
        <ele>713</ele>
        <time>2011-08-01T13:59:30.000Z</time>
      </trkpt>
      <trkpt lat="45.65734" lon="4.57214">
        <ele>712</ele>
        <time>2011-08-01T13:59:36.000Z</time>
      </trkpt>
      <trkpt lat="45.65744" lon="4.57176">
        <ele>713</ele>
        <time>2011-08-01T14:00:30.000Z</time>
      </trkpt>
      <trkpt lat="45.65747" lon="4.57175">
        <ele>713</ele>
        <time>2011-08-01T14:00:32.000Z</time>
      </trkpt>
      <trkpt lat="45.65758" lon="4.57171">
        <ele>713</ele>
        <time>2011-08-01T14:00:38.000Z</time>
      </trkpt>
      <trkpt lat="45.65765" lon="4.57163">
        <ele>713</ele>
        <time>2011-08-01T14:00:48.000Z</time>
      </trkpt>
      <trkpt lat="45.65766" lon="4.57161">
        <ele>713</ele>
        <time>2011-08-01T14:00:50.000Z</time>
      </trkpt>
      <trkpt lat="45.65766" lon="4.57161">
        <ele>713</ele>
        <time>2011-08-01T14:01:10.000Z</time>
      </trkpt>
      <trkpt lat="45.65771" lon="4.57122">
        <ele>714</ele>
        <time>2011-08-01T14:01:22.000Z</time>
      </trkpt>
      <trkpt lat="45.6577" lon="4.57109">
        <ele>714</ele>
        <time>2011-08-01T14:01:30.000Z</time>
      </trkpt>
      <trkpt lat="45.65767" lon="4.57095">
        <ele>714</ele>
        <time>2011-08-01T14:01:38.000Z</time>
      </trkpt>
      <trkpt lat="45.65759" lon="4.5707">
        <ele>715</ele>
        <time>2011-08-01T14:01:54.000Z</time>
      </trkpt>
      <trkpt lat="45.65754" lon="4.57043">
        <ele>716</ele>
        <time>2011-08-01T14:02:12.000Z</time>
      </trkpt>
      <trkpt lat="45.65751" lon="4.57031">
        <ele>717</ele>
        <time>2011-08-01T14:02:18.000Z</time>
      </trkpt>
      <trkpt lat="45.65746" lon="4.57019">
        <ele>717</ele>
        <time>2011-08-01T14:02:24.000Z</time>
      </trkpt>
      <trkpt lat="45.65739" lon="4.57007">
        <ele>717</ele>
        <time>2011-08-01T14:02:32.000Z</time>
      </trkpt>
      <trkpt lat="45.65733" lon="4.56996">
        <ele>718</ele>
        <time>2011-08-01T14:02:38.000Z</time>
      </trkpt>
      <trkpt lat="45.65719" lon="4.56977">
        <ele>719</ele>
        <time>2011-08-01T14:03:00.000Z</time>
      </trkpt>
      <trkpt lat="45.65707" lon="4.56956">
        <ele>720</ele>
        <time>2011-08-01T14:03:18.000Z</time>
      </trkpt>
      <trkpt lat="45.65702" lon="4.56946">
        <ele>721</ele>
        <time>2011-08-01T14:03:24.000Z</time>
      </trkpt>
      <trkpt lat="45.65691" lon="4.56924">
        <ele>722</ele>
        <time>2011-08-01T14:03:36.000Z</time>
      </trkpt>
      <trkpt lat="45.65685" lon="4.56913">
        <ele>723</ele>
        <time>2011-08-01T14:03:42.000Z</time>
      </trkpt>
      <trkpt lat="45.65685" lon="4.56913">
        <ele>723</ele>
        <time>2011-08-01T14:04:02.000Z</time>
      </trkpt>
      <trkpt lat="45.65672" lon="4.56877">
        <ele>723</ele>
        <time>2011-08-01T14:04:12.000Z</time>
      </trkpt>
      <trkpt lat="45.65662" lon="4.56853">
        <ele>724</ele>
        <time>2011-08-01T14:04:24.000Z</time>
      </trkpt>
      <trkpt lat="45.65651" lon="4.56829">
        <ele>725</ele>
        <time>2011-08-01T14:04:34.000Z</time>
      </trkpt>
      <trkpt lat="45.6564" lon="4.56763">
        <ele>725</ele>
        <time>2011-08-01T14:05:10.000Z</time>
      </trkpt>
      <trkpt lat="45.65649" lon="4.56726">
        <ele>726</ele>
        <time>2011-08-01T14:05:30.000Z</time>
      </trkpt>
      <trkpt lat="45.65664" lon="4.56686">
        <ele>726</ele>
        <time>2011-08-01T14:05:52.000Z</time>
      </trkpt>
      <trkpt lat="45.6567" lon="4.56676">
        <ele>726</ele>
        <time>2011-08-01T14:05:58.000Z</time>
      </trkpt>
      <trkpt lat="45.65679" lon="4.5667">
        <ele>726</ele>
        <time>2011-08-01T14:06:08.000Z</time>
      </trkpt>
      <trkpt lat="45.65691" lon="4.56667">
        <ele>727</ele>
        <time>2011-08-01T14:06:18.000Z</time>
      </trkpt>
      <trkpt lat="45.65696" lon="4.56667">
        <ele>727</ele>
        <time>2011-08-01T14:06:20.000Z</time>
      </trkpt>
      <trkpt lat="45.65722" lon="4.56672">
        <ele>728</ele>
        <time>2011-08-01T14:06:36.000Z</time>
      </trkpt>
      <trkpt lat="45.65734" lon="4.56672">
        <ele>728</ele>
        <time>2011-08-01T14:06:48.000Z</time>
      </trkpt>
      <trkpt lat="45.65736" lon="4.56671">
        <ele>728</ele>
        <time>2011-08-01T14:06:50.000Z</time>
      </trkpt>
      <trkpt lat="45.65738" lon="4.5667">
        <ele>729</ele>
        <time>2011-08-01T14:06:52.000Z</time>
      </trkpt>
      <trkpt lat="45.65764" lon="4.56655">
        <ele>728</ele>
        <time>2011-08-01T14:07:12.000Z</time>
      </trkpt>
      <trkpt lat="45.65771" lon="4.56645">
        <ele>728</ele>
        <time>2011-08-01T14:07:22.000Z</time>
      </trkpt>
      <trkpt lat="45.65774" lon="4.56638">
        <ele>728</ele>
        <time>2011-08-01T14:07:26.000Z</time>
      </trkpt>
      <trkpt lat="45.65776" lon="4.56634">
        <ele>727</ele>
        <time>2011-08-01T14:07:28.000Z</time>
      </trkpt>
      <trkpt lat="45.65787" lon="4.56619">
        <ele>726</ele>
        <time>2011-08-01T14:07:36.000Z</time>
      </trkpt>
      <trkpt lat="45.65787" lon="4.56619">
        <ele>726</ele>
        <time>2011-08-01T14:07:56.000Z</time>
      </trkpt>
      <trkpt lat="45.65804" lon="4.56595">
        <ele>725</ele>
        <time>2011-08-01T14:07:58.000Z</time>
      </trkpt>
      <trkpt lat="45.65804" lon="4.56595">
        <ele>725</ele>
        <time>2011-08-01T14:08:18.000Z</time>
      </trkpt>
      <trkpt lat="45.65825" lon="4.56568">
        <ele>726</ele>
        <time>2011-08-01T14:08:28.000Z</time>
      </trkpt>
      <trkpt lat="45.65825" lon="4.56568">
        <ele>726</ele>
        <time>2011-08-01T14:08:48.000Z</time>
      </trkpt>
      <trkpt lat="45.65845" lon="4.56542">
        <ele>726</ele>
        <time>2011-08-01T14:08:50.000Z</time>
      </trkpt>
      <trkpt lat="45.65861" lon="4.56505">
        <ele>726</ele>
        <time>2011-08-01T14:09:04.000Z</time>
      </trkpt>
      <trkpt lat="45.65879" lon="4.56475">
        <ele>726</ele>
        <time>2011-08-01T14:09:18.000Z</time>
      </trkpt>
      <trkpt lat="45.65901" lon="4.56451">
        <ele>726</ele>
        <time>2011-08-01T14:09:38.000Z</time>
      </trkpt>
      <trkpt lat="45.65924" lon="4.56441">
        <ele>726</ele>
        <time>2011-08-01T14:09:58.000Z</time>
      </trkpt>
      <trkpt lat="45.65934" lon="4.56433">
        <ele>727</ele>
        <time>2011-08-01T14:10:06.000Z</time>
      </trkpt>
      <trkpt lat="45.65955" lon="4.56407">
        <ele>727</ele>
        <time>2011-08-01T14:10:30.000Z</time>
      </trkpt>
      <trkpt lat="45.65955" lon="4.56404">
        <ele>727</ele>
        <time>2011-08-01T14:10:32.000Z</time>
      </trkpt>
      <trkpt lat="45.65955" lon="4.56404">
        <ele>727</ele>
        <time>2011-08-01T14:10:52.000Z</time>
      </trkpt>
      <trkpt lat="45.65928" lon="4.56396">
        <ele>727</ele>
        <time>2011-08-01T14:11:22.000Z</time>
      </trkpt>
      <trkpt lat="45.65918" lon="4.56397">
        <ele>727</ele>
        <time>2011-08-01T14:11:32.000Z</time>
      </trkpt>
      <trkpt lat="45.65915" lon="4.56398">
        <ele>727</ele>
        <time>2011-08-01T14:11:36.000Z</time>
      </trkpt>
      <trkpt lat="45.65911" lon="4.564">
        <ele>727</ele>
        <time>2011-08-01T14:11:42.000Z</time>
      </trkpt>
      <trkpt lat="45.6591" lon="4.564">
        <ele>727</ele>
        <time>2011-08-01T14:11:44.000Z</time>
      </trkpt>
      <trkpt lat="45.65904" lon="4.5639">
        <ele>727</ele>
        <time>2011-08-01T14:11:58.000Z</time>
      </trkpt>
      <trkpt lat="45.65899" lon="4.56379">
        <ele>727</ele>
        <time>2011-08-01T14:12:35.000Z</time>
      </trkpt>
    </trkseg>
  </trk>
</gpx>